Observation data for Romero 11SSW on 02/22/2021      Previous  Date  Next       Current Mesonet Observations  Soil Data  Daily Summary Page  Observations in Plain Language
KBR1 220600Z 23002KT M01/M09 A3017 RMK A01 T10061089  RH  054%=      5-min Rain = 0
KBR1 220601Z 24002KT M01/M09 A3018 RMK A01 T10081090  RH  054%=      5-min Rain = 0
KBR1 220602Z 26002KT M01/M09 A3018 RMK A01 T10081089  RH  054%=      5-min Rain = 0
KBR1 220603Z 26002KT M01/M09 A3018 RMK A01 T10081090  RH  054%=      5-min Rain = 0
KBR1 220604Z 26002KT M01/M09 A3018 RMK A01 T10081090  RH  054%=      5-min Rain = 0
KBR1 220605Z 27002KT M01/M09 A3018 RMK A01 T10081090  RH  054%=      5-min Rain = 0
KBR1 220606Z 28002KT M01/M09 A3018 RMK A01 T10071090  RH  054%=      5-min Rain = 0
KBR1 220607Z 28002KT M01/M09 A3018 RMK A01 T10071090  RH  054%=      5-min Rain = 0
KBR1 220608Z 29002KT M01/M09 A3018 RMK A01 T10071089  RH  054%=      5-min Rain = 0
KBR1 220609Z 30002KT M01/M09 A3018 RMK A01 T10051089  RH  053%=      5-min Rain = 0
KBR1 220610Z 29003KT M00/M09 A3018 RMK A01 T10041089  RH  053%=      5-min Rain = 0
KBR1 220611Z 30003KT M00/M09 A3018 RMK A01 T10041089  RH  053%=      5-min Rain = 0
KBR1 220612Z 30002KT M01/M09 A3018 RMK A01 T10091089  RH  054%=      5-min Rain = 0
KBR1 220613Z 31002KT M01/M09 A3018 RMK A01 T10121089  RH  056%=      5-min Rain = 0
KBR1 220614Z 30002KT M02/M09 A3018 RMK A01 T10151088  RH  058%=      5-min Rain = 0
KBR1 220615Z 30003KT M02/M09 A3018 RMK A01 T10171087  RH  059%=      5-min Rain = 0
KBR1 220616Z 29003KT M02/M09 A3018 RMK A01 T10171086  RH  059%=      5-min Rain = 0
KBR1 220617Z 29003KT M02/M09 A3018 RMK A01 T10161085  RH  059%=      5-min Rain = 0
KBR1 220618Z 29002KT M02/M09 A3018 RMK A01 T10161085  RH  059%=      5-min Rain = 0
KBR1 220619Z 29003KT M02/M09 A3018 RMK A01 T10171085  RH  060%=      5-min Rain = 0
KBR1 220620Z 29003KT M02/M08 A3018 RMK A01 T10181084  RH  060%=      5-min Rain = 0
KBR1 220621Z 29003KT M02/M08 A3018 RMK A01 T10181084  RH  061%=      5-min Rain = 0
KBR1 220622Z 29003KT M02/M08 A3018 RMK A01 T10191084  RH  061%=      5-min Rain = 0
KBR1 220623Z 30003KT M02/M09 A3018 RMK A01 T10201085  RH  061%=      5-min Rain = 0
KBR1 220624Z 29003KT M02/M09 A3018 RMK A01 T10201085  RH  061%=      5-min Rain = 0
KBR1 220625Z 29003KT M02/M08 A3018 RMK A01 T10191084  RH  061%=      5-min Rain = 0
KBR1 220626Z 29003KT M02/M08 A3018 RMK A01 T10171084  RH  060%=      5-min Rain = 0
KBR1 220627Z 29003KT M02/M08 A3018 RMK A01 T10161084  RH  060%=      5-min Rain = 0
KBR1 220628Z 30003KT M02/M08 A3018 RMK A01 T10151084  RH  059%=      5-min Rain = 0
KBR1 220629Z 30003KT M02/M08 A3018 RMK A01 T10151084  RH  059%=      5-min Rain = 0
KBR1 220630Z 30003KT M02/M08 A3017 RMK A01 T10151084  RH  059%=      5-min Rain = 0
KBR1 220631Z 30003KT M02/M08 A3017 RMK A01 T10151084  RH  059%=      5-min Rain = 0
KBR1 220632Z 30002KT M02/M08 A3017 RMK A01 T10161084  RH  060%=      5-min Rain = 0
KBR1 220633Z 30002KT M02/M08 A3017 RMK A01 T10161084  RH  060%=      5-min Rain = 0
KBR1 220634Z 30002KT M02/M08 A3017 RMK A01 T10171084  RH  060%=      5-min Rain = 0
KBR1 220635Z 31002KT M02/M08 A3017 RMK A01 T10171084  RH  060%=      5-min Rain = 0
KBR1 220636Z 30002KT M02/M09 A3017 RMK A01 T10171085  RH  060%=      5-min Rain = 0
KBR1 220637Z 31002KT M02/M08 A3017 RMK A01 T10161084  RH  060%=      5-min Rain = 0
KBR1 220638Z 31001KT M02/M09 A3017 RMK A01 T10161085  RH  059%=      5-min Rain = 0
KBR1 220639Z 30001KT M02/M09 A3017 RMK A01 T10151085  RH  059%=      5-min Rain = 0
KBR1 220640Z 30001KT M02/M09 A3017 RMK A01 T10151085  RH  059%=      5-min Rain = 0
KBR1 220641Z 29001KT M01/M08 A3017 RMK A01 T10141084  RH  059%=      5-min Rain = 0
KBR1 220642Z 25001KT M01/M09 A3017 RMK A01 T10131085  RH  058%=      5-min Rain = 0
KBR1 220643Z 24002KT M01/M09 A3017 RMK A01 T10121085  RH  058%=      5-min Rain = 0
KBR1 220644Z 25002KT M01/M09 A3017 RMK A01 T10111085  RH  057%=      5-min Rain = 0
KBR1 220645Z 26002KT M01/M09 A3017 RMK A01 T10101085  RH  057%=      5-min Rain = 0
KBR1 220646Z 27002KT M01/M09 A3017 RMK A01 T10091085  RH  056%=      5-min Rain = 0
KBR1 220647Z 27002KT M01/M09 A3017 RMK A01 T10091085  RH  056%=      5-min Rain = 0
KBR1 220648Z 28002KT M01/M09 A3017 RMK A01 T10091085  RH  056%=      5-min Rain = 0
KBR1 220649Z 28003KT M01/M09 A3018 RMK A01 T10091085  RH  056%=      5-min Rain = 0
KBR1 220650Z 29003KT M01/M09 A3018 RMK A01 T10101085  RH  057%=      5-min Rain = 0
KBR1 220651Z 29004KT M01/M09 A3018 RMK A01 T10121086  RH  057%=      5-min Rain = 0
KBR1 220652Z 29004KT M01/M09 A3018 RMK A01 T10141086  RH  058%=      5-min Rain = 0
KBR1 220653Z 30004KT M02/M09 A3018 RMK A01 T10171086  RH  059%=      5-min Rain = 0
KBR1 220654Z 30004KT M02/M09 A3018 RMK A01 T10201085  RH  061%=      5-min Rain = 0
KBR1 220655Z 30004KT M02/M08 A3018 RMK A01 T10221084  RH  062%=      5-min Rain = 0
KBR1 220656Z 29005KT M02/M08 A3018 RMK A01 T10231083  RH  064%=      5-min Rain = 0
KBR1 220657Z 29005KT M03/M08 A3018 RMK A01 T10251082  RH  065%=      5-min Rain = 0
KBR1 220658Z 29004KT M03/M08 A3018 RMK A01 T10251082  RH  065%=      5-min Rain = 0
KBR1 220659Z 30004KT M03/M08 A3018 RMK A01 T10261081  RH  066%=      5-min Rain = 0
KBR1 220700Z 29004KT M03/M08 A3018 RMK A01 T10261081  RH  066%=      5-min Rain = 0
KBR1 220701Z 29004KT M03/M08 A3018 RMK A01 T10271081  RH  067%=      5-min Rain = 0
KBR1 220702Z 29004KT M03/M08 A3018 RMK A01 T10271080  RH  067%=      5-min Rain = 0
KBR1 220703Z 28004KT M03/M08 A3018 RMK A01 T10281080  RH  067%=      5-min Rain = 0
KBR1 220704Z 29003KT M03/M08 A3018 RMK A01 T10271081  RH  067%=      5-min Rain = 0
KBR1 220705Z 29003KT M03/M08 A3018 RMK A01 T10261080  RH  066%=      5-min Rain = 0
KBR1 220706Z 29003KT M03/M08 A3018 RMK A01 T10251081  RH  066%=      5-min Rain = 0
KBR1 220707Z 29003KT M02/M08 A3018 RMK A01 T10241081  RH  065%=      5-min Rain = 0
KBR1 220708Z 29003KT M02/M08 A3018 RMK A01 T10241081  RH  065%=      5-min Rain = 0
KBR1 220709Z 29003KT M02/M08 A3018 RMK A01 T10231081  RH  065%=      5-min Rain = 0
KBR1 220710Z 30002KT M02/M08 A3018 RMK A01 T10231081  RH  065%=      5-min Rain = 0
KBR1 220711Z 30003KT M03/M08 A3018 RMK A01 T10251081  RH  065%=      5-min Rain = 0
KBR1 220712Z 30003KT M03/M08 A3018 RMK A01 T10261082  RH  066%=      5-min Rain = 0
KBR1 220713Z 30003KT M03/M08 A3018 RMK A01 T10271082  RH  066%=      5-min Rain = 0
KBR1 220714Z 29003KT M03/M08 A3018 RMK A01 T10281082  RH  066%=      5-min Rain = 0
KBR1 220715Z 30003KT M03/M08 A3018 RMK A01 T10281082  RH  066%=      5-min Rain = 0
KBR1 220716Z 30003KT M03/M08 A3018 RMK A01 T10271082  RH  066%=      5-min Rain = 0
KBR1 220717Z 29003KT M03/M08 A3018 RMK A01 T10281082  RH  066%=      5-min Rain = 0
KBR1 220718Z 29002KT M03/M08 A3018 RMK A01 T10281081  RH  066%=      5-min Rain = 0
KBR1 220719Z 28002KT M03/M08 A3018 RMK A01 T10281081  RH  066%=      5-min Rain = 0
KBR1 220720Z 28002KT M03/M08 A3018 RMK A01 T10281082  RH  066%=      5-min Rain = 0
KBR1 220721Z 28002KT M03/M08 A3018 RMK A01 T10271082  RH  066%=      5-min Rain = 0
KBR1 220722Z 27002KT M03/M08 A3018 RMK A01 T10261082  RH  065%=      5-min Rain = 0
KBR1 220723Z 28002KT M02/M08 A3017 RMK A01 T10241081  RH  065%=      5-min Rain = 0
KBR1 220724Z 29002KT M02/M08 A3017 RMK A01 T10231082  RH  064%=      5-min Rain = 0
KBR1 220725Z 29002KT M02/M08 A3017 RMK A01 T10231082  RH  064%=      5-min Rain = 0
KBR1 220726Z 29002KT M02/M08 A3017 RMK A01 T10231082  RH  064%=      5-min Rain = 0
KBR1 220727Z 30002KT M02/M08 A3017 RMK A01 T10231082  RH  064%=      5-min Rain = 0
KBR1 220728Z 30002KT M02/M08 A3017 RMK A01 T10231083  RH  064%=      5-min Rain = 0
KBR1 220729Z 30002KT M02/M08 A3017 RMK A01 T10231083  RH  064%=      5-min Rain = 0
KBR1 220730Z 31002KT M02/M08 A3017 RMK A01 T10231083  RH  064%=      5-min Rain = 0
KBR1 220731Z 31002KT M02/M08 A3017 RMK A01 T10231083  RH  064%=      5-min Rain = 0
KBR1 220732Z 31001KT M02/M08 A3017 RMK A01 T10241083  RH  064%=      5-min Rain = 0
KBR1 220733Z 31001KT M02/M08 A3017 RMK A01 T10241083  RH  064%=      5-min Rain = 0
KBR1 220734Z 31001KT M02/M08 A3017 RMK A01 T10231082  RH  064%=      5-min Rain = 0
KBR1 220735Z 31001KT M02/M08 A3017 RMK A01 T10221082  RH  063%=      5-min Rain = 0
KBR1 220736Z 31001KT M02/M08 A3017 RMK A01 T10201082  RH  063%=      5-min Rain = 0
KBR1 220737Z 30001KT M02/M08 A3017 RMK A01 T10191082  RH  062%=      5-min Rain = 0
KBR1 220738Z 30001KT M02/M08 A3017 RMK A01 T10181082  RH  062%=      5-min Rain = 0
KBR1 220739Z 30002KT M02/M08 A3017 RMK A01 T10171082  RH  061%=      5-min Rain = 0
KBR1 220740Z 30001KT M02/M08 A3017 RMK A01 T10171083  RH  061%=      5-min Rain = 0
KBR1 220741Z 30001KT M02/M08 A3016 RMK A01 T10181083  RH  061%=      5-min Rain = 0
KBR1 220742Z 30002KT M02/M08 A3016 RMK A01 T10171083  RH  061%=      5-min Rain = 0
KBR1 220743Z 30001KT M02/M08 A3016 RMK A01 T10181083  RH  061%=      5-min Rain = 0
KBR1 220744Z 30001KT M02/M08 A3016 RMK A01 T10171083  RH  061%=      5-min Rain = 0
KBR1 220745Z 30001KT M02/M08 A3016 RMK A01 T10171083  RH  061%=      5-min Rain = 0
KBR1 220746Z 30001KT M02/M08 A3016 RMK A01 T10161083  RH  060%=      5-min Rain = 0
KBR1 220747Z 30001KT M02/M08 A3016 RMK A01 T10161083  RH  060%=      5-min Rain = 0
KBR1 220748Z 30000KT M02/M08 A3016 RMK A01 T10151083  RH  060%=      5-min Rain = 0
KBR1 220749Z 00000KT M02/M08 A3016 RMK A01 T10151083  RH  060%=      5-min Rain = 0
KBR1 220750Z 33000KT M01/M08 A3016 RMK A01 T10141083  RH  060%=      5-min Rain = 0
KBR1 220751Z 26001KT M01/M08 A3016 RMK A01 T10141083  RH  059%=      5-min Rain = 0
KBR1 220752Z 31000KT M01/M08 A3016 RMK A01 T10131083  RH  059%=      5-min Rain = 0
KBR1 220753Z 00000KT M01/M08 A3016 RMK A01 T10131083  RH  059%=      5-min Rain = 0
KBR1 220754Z 00000KT M01/M08 A3016 RMK A01 T10131083  RH  059%=      5-min Rain = 0
KBR1 220755Z 00000KT M01/M08 A3016 RMK A01 T10131083  RH  059%=      5-min Rain = 0
KBR1 220756Z 00000KT M01/M08 A3016 RMK A01 T10131083  RH  059%=      5-min Rain = 0
KBR1 220757Z 00000KT M01/M08 A3016 RMK A01 T10121083  RH  059%=      5-min Rain = 0
KBR1 220758Z 00000KT M01/M08 A3016 RMK A01 T10121083  RH  058%=      5-min Rain = 0
KBR1 220759Z 00000KT M01/M08 A3016 RMK A01 T10111083  RH  058%=      5-min Rain = 0
KBR1 220800Z 00000KT M01/M08 A3016 RMK A01 T10111083  RH  058%=      5-min Rain = 0
KBR1 220801Z 00000KT M01/M08 A3016 RMK A01 T10101083  RH  058%=      5-min Rain = 0
KBR1 220802Z 00000KT M01/M08 A3015 RMK A01 T10111083  RH  058%=      5-min Rain = 0
KBR1 220803Z 00000KT M01/M08 A3015 RMK A01 T10111084  RH  058%=      5-min Rain = 0
KBR1 220804Z 00000KT M01/M08 A3015 RMK A01 T10111083  RH  058%=      5-min Rain = 0
KBR1 220805Z 20000KT M01/M08 A3015 RMK A01 T10111083  RH  058%=      5-min Rain = 0
KBR1 220806Z 24001KT M01/M08 A3015 RMK A01 T10111083  RH  058%=      5-min Rain = 0
KBR1 220807Z 24001KT M01/M08 A3015 RMK A01 T10111084  RH  058%=      5-min Rain = 0
KBR1 220808Z 23002KT M01/M08 A3015 RMK A01 T10121084  RH  058%=      5-min Rain = 0
KBR1 220809Z 21002KT M01/M08 A3015 RMK A01 T10121084  RH  058%=      5-min Rain = 0
KBR1 220810Z 22003KT M01/M08 A3015 RMK A01 T10121084  RH  058%=      5-min Rain = 0
KBR1 220811Z 21003KT M01/M08 A3015 RMK A01 T10121084  RH  058%=      5-min Rain = 0
KBR1 220812Z 23003KT M01/M09 A3015 RMK A01 T10121085  RH  058%=      5-min Rain = 0
KBR1 220813Z 24002KT M01/M09 A3015 RMK A01 T10121085  RH  058%=      5-min Rain = 0
KBR1 220814Z 23002KT M01/M09 A3015 RMK A01 T10121085  RH  058%=      5-min Rain = 0
KBR1 220815Z 22003KT M01/M09 A3015 RMK A01 T10121085  RH  058%=      5-min Rain = 0
KBR1 220816Z 22003KT M01/M09 A3015 RMK A01 T10141085  RH  058%=      5-min Rain = 0
KBR1 220817Z 22003KT M02/M09 A3015 RMK A01 T10151085  RH  059%=      5-min Rain = 0
KBR1 220818Z 21003KT M02/M09 A3015 RMK A01 T10161085  RH  059%=      5-min Rain = 0
KBR1 220819Z 21003KT M02/M09 A3015 RMK A01 T10161085  RH  059%=      5-min Rain = 0
KBR1 220820Z 21003KT M02/M09 A3015 RMK A01 T10161085  RH  059%=      5-min Rain = 0
KBR1 220821Z 21004KT M02/M09 A3015 RMK A01 T10171085  RH  060%=      5-min Rain = 0
KBR1 220822Z 21004KT M02/M09 A3015 RMK A01 T10171085  RH  060%=      5-min Rain = 0
KBR1 220823Z 22003KT M02/M09 A3015 RMK A01 T10181086  RH  060%=      5-min Rain = 0
KBR1 220824Z 22003KT M02/M09 A3015 RMK A01 T10191085  RH  060%=      5-min Rain = 0
KBR1 220825Z 22002KT M02/M09 A3015 RMK A01 T10201085  RH  061%=      5-min Rain = 0
KBR1 220826Z 22002KT M02/M09 A3015 RMK A01 T10201085  RH  061%=      5-min Rain = 0
KBR1 220827Z 22003KT M02/M09 A3015 RMK A01 T10211086  RH  061%=      5-min Rain = 0
KBR1 220828Z 22003KT M02/M09 A3015 RMK A01 T10211086  RH  061%=      5-min Rain = 0
KBR1 220829Z 22003KT M02/M09 A3015 RMK A01 T10221086  RH  061%=      5-min Rain = 0
KBR1 220830Z 23003KT M02/M09 A3015 RMK A01 T10231086  RH  062%=      5-min Rain = 0
KBR1 220831Z 23004KT M02/M09 A3015 RMK A01 T10231086  RH  062%=      5-min Rain = 0
KBR1 220832Z 24003KT M02/M09 A3015 RMK A01 T10221085  RH  062%=      5-min Rain = 0
KBR1 220833Z 25003KT M02/M08 A3015 RMK A01 T10201084  RH  061%=      5-min Rain = 0
KBR1 220834Z 26003KT M02/M08 A3015 RMK A01 T10181084  RH  061%=      5-min Rain = 0
KBR1 220835Z 25003KT M02/M09 A3015 RMK A01 T10181085  RH  060%=      5-min Rain = 0
KBR1 220836Z 24004KT M02/M09 A3015 RMK A01 T10181085  RH  060%=      5-min Rain = 0
KBR1 220837Z 25004KT M02/M09 A3015 RMK A01 T10181085  RH  060%=      5-min Rain = 0
KBR1 220838Z 25004KT M02/M09 A3015 RMK A01 T10191085  RH  061%=      5-min Rain = 0
KBR1 220839Z 25004KT M02/M08 A3015 RMK A01 T10191084  RH  061%=      5-min Rain = 0
KBR1 220840Z 25004KT M02/M08 A3015 RMK A01 T10191083  RH  062%=      5-min Rain = 0
KBR1 220841Z 25004KT M02/M08 A3015 RMK A01 T10191083  RH  062%=      5-min Rain = 0
KBR1 220842Z 26004KT M02/M08 A3015 RMK A01 T10191083  RH  062%=      5-min Rain = 0
KBR1 220843Z 26005KT M02/M08 A3015 RMK A01 T10201083  RH  062%=      5-min Rain = 0
KBR1 220844Z 25005KT M02/M08 A3015 RMK A01 T10211083  RH  063%=      5-min Rain = 0
KBR1 220845Z 25005KT M02/M08 A3016 RMK A01 T10221083  RH  063%=      5-min Rain = 0
KBR1 220846Z 26005KT M02/M08 A3016 RMK A01 T10221083  RH  063%=      5-min Rain = 0
KBR1 220847Z 25005KT M02/M08 A3016 RMK A01 T10221083  RH  063%=      5-min Rain = 0
KBR1 220848Z 26005KT M02/M08 A3016 RMK A01 T10231083  RH  064%=      5-min Rain = 0
KBR1 220849Z 27004KT M02/M08 A3016 RMK A01 T10241083  RH  064%=      5-min Rain = 0
KBR1 220850Z 27003KT M03/M08 A3016 RMK A01 T10251083  RH  065%=      5-min Rain = 0
KBR1 220851Z 27004KT M03/M08 A3016 RMK A01 T10261082  RH  065%=      5-min Rain = 0
KBR1 220852Z 26004KT M03/M08 A3016 RMK A01 T10271082  RH  066%=      5-min Rain = 0
KBR1 220853Z 26004KT M03/M08 A3016 RMK A01 T10281083  RH  066%=      5-min Rain = 0
KBR1 220854Z 26004KT M03/M08 A3016 RMK A01 T10281082  RH  066%=      5-min Rain = 0
KBR1 220855Z 26004KT M03/M08 A3016 RMK A01 T10281082  RH  066%=      5-min Rain = 0
KBR1 220856Z 27003KT M03/M08 A3016 RMK A01 T10281082  RH  067%=      5-min Rain = 0
KBR1 220857Z 28002KT M03/M08 A3016 RMK A01 T10281082  RH  067%=      5-min Rain = 0
KBR1 220858Z 29001KT M03/M08 A3015 RMK A01 T10291082  RH  067%=      5-min Rain = 0
KBR1 220859Z 28001KT M03/M08 A3015 RMK A01 T10291082  RH  067%=      5-min Rain = 0
KBR1 220900Z 29001KT M03/M08 A3015 RMK A01 T10291082  RH  067%=      5-min Rain = 0
KBR1 220901Z 29001KT M03/M08 A3015 RMK A01 T10281082  RH  067%=      5-min Rain = 0
KBR1 220902Z 29001KT M03/M08 A3015 RMK A01 T10271082  RH  066%=      5-min Rain = 0
KBR1 220903Z 29001KT M03/M08 A3015 RMK A01 T10261081  RH  066%=      5-min Rain = 0
KBR1 220904Z 29002KT M03/M08 A3015 RMK A01 T10261081  RH  066%=      5-min Rain = 0
KBR1 220905Z 28002KT M03/M08 A3015 RMK A01 T10261082  RH  065%=      5-min Rain = 0
KBR1 220906Z 28002KT M03/M08 A3015 RMK A01 T10251082  RH  065%=      5-min Rain = 0
KBR1 220907Z 28002KT M03/M08 A3015 RMK A01 T10261082  RH  065%=      5-min Rain = 0
KBR1 220908Z 28002KT M03/M08 A3015 RMK A01 T10261082  RH  065%=      5-min Rain = 0
KBR1 220909Z 29003KT M03/M08 A3015 RMK A01 T10261082  RH  065%=      5-min Rain = 0
KBR1 220910Z 29003KT M03/M08 A3015 RMK A01 T10261082  RH  065%=      5-min Rain = 0
KBR1 220911Z 28002KT M03/M08 A3015 RMK A01 T10261082  RH  065%=      5-min Rain = 0
KBR1 220912Z 27002KT M03/M08 A3015 RMK A01 T10261082  RH  065%=      5-min Rain = 0
KBR1 220913Z 27002KT M03/M08 A3015 RMK A01 T10261082  RH  065%=      5-min Rain = 0
KBR1 220914Z 26002KT M03/M08 A3015 RMK A01 T10261082  RH  065%=      5-min Rain = 0
KBR1 220915Z 26002KT M03/M08 A3015 RMK A01 T10251082  RH  065%=      5-min Rain = 0
KBR1 220916Z 26002KT M03/M08 A3015 RMK A01 T10251082  RH  065%=      5-min Rain = 0
KBR1 220917Z 26001KT M03/M08 A3015 RMK A01 T10251082  RH  065%=      5-min Rain = 0
KBR1 220918Z 26001KT M02/M08 A3015 RMK A01 T10241082  RH  065%=      5-min Rain = 0
KBR1 220919Z 27002KT M02/M08 A3015 RMK A01 T10241082  RH  064%=      5-min Rain = 0
KBR1 220920Z 27002KT M02/M08 A3015 RMK A01 T10241082  RH  064%=      5-min Rain = 0
KBR1 220921Z 27001KT M02/M08 A3015 RMK A01 T10241082  RH  064%=      5-min Rain = 0
KBR1 220922Z 27002KT M02/M08 A3015 RMK A01 T10241082  RH  064%=      5-min Rain = 0
KBR1 220923Z 26001KT M02/M08 A3015 RMK A01 T10231082  RH  064%=      5-min Rain = 0
KBR1 220924Z 26002KT M02/M08 A3015 RMK A01 T10231082  RH  064%=      5-min Rain = 0
KBR1 220925Z 25002KT M02/M08 A3015 RMK A01 T10241083  RH  064%=      5-min Rain = 0
KBR1 220926Z 25002KT M02/M08 A3015 RMK A01 T10231082  RH  064%=      5-min Rain = 0
KBR1 220927Z 25002KT M02/M08 A3015 RMK A01 T10241082  RH  064%=      5-min Rain = 0
KBR1 220928Z 24002KT M02/M08 A3015 RMK A01 T10231082  RH  064%=      5-min Rain = 0
KBR1 220929Z 24002KT M02/M08 A3015 RMK A01 T10231082  RH  064%=      5-min Rain = 0
KBR1 220930Z 25002KT M02/M08 A3015 RMK A01 T10231082  RH  064%=      5-min Rain = 0
KBR1 220931Z 26002KT M02/M08 A3015 RMK A01 T10231082  RH  064%=      5-min Rain = 0
KBR1 220932Z 26002KT M02/M08 A3015 RMK A01 T10231082  RH  064%=      5-min Rain = 0
KBR1 220933Z 26002KT M02/M08 A3015 RMK A01 T10241082  RH  064%=      5-min Rain = 0
KBR1 220934Z 26002KT M03/M08 A3015 RMK A01 T10251083  RH  064%=      5-min Rain = 0
KBR1 220935Z 26002KT M03/M08 A3015 RMK A01 T10271084  RH  065%=      5-min Rain = 0
KBR1 220936Z 25002KT M03/M09 A3014 RMK A01 T10291085  RH  065%=      5-min Rain = 0
KBR1 220937Z 25002KT M03/M08 A3014 RMK A01 T10291083  RH  066%=      5-min Rain = 0
KBR1 220938Z 25002KT M03/M08 A3014 RMK A01 T10291083  RH  067%=      5-min Rain = 0
KBR1 220939Z 24002KT M03/M08 A3014 RMK A01 T10281082  RH  067%=      5-min Rain = 0
KBR1 220940Z 24002KT M03/M08 A3014 RMK A01 T10281082  RH  066%=      5-min Rain = 0
KBR1 220941Z 24002KT M03/M08 A3014 RMK A01 T10281082  RH  066%=      5-min Rain = 0
KBR1 220942Z 24001KT M03/M08 A3014 RMK A01 T10281083  RH  066%=      5-min Rain = 0
KBR1 220943Z 26001KT M03/M08 A3014 RMK A01 T10281083  RH  066%=      5-min Rain = 0
KBR1 220944Z 26001KT M03/M08 A3014 RMK A01 T10271082  RH  066%=      5-min Rain = 0
KBR1 220945Z 27001KT M03/M08 A3014 RMK A01 T10271082  RH  066%=      5-min Rain = 0
KBR1 220946Z 27001KT M03/M08 A3014 RMK A01 T10281082  RH  066%=      5-min Rain = 0
KBR1 220947Z 27001KT M03/M08 A3014 RMK A01 T10281082  RH  066%=      5-min Rain = 0
KBR1 220948Z 27001KT M03/M08 A3014 RMK A01 T10281082  RH  066%=      5-min Rain = 0
KBR1 220949Z 27001KT M03/M08 A3014 RMK A01 T10281082  RH  066%=      5-min Rain = 0
KBR1 220950Z 27001KT M03/M08 A3014 RMK A01 T10281082  RH  066%=      5-min Rain = 0
KBR1 220951Z 27001KT M03/M08 A3014 RMK A01 T10291082  RH  067%=      5-min Rain = 0
KBR1 220952Z 27001KT M03/M08 A3014 RMK A01 T10291082  RH  067%=      5-min Rain = 0
KBR1 220953Z 27001KT M03/M08 A3014 RMK A01 T10291082  RH  067%=      5-min Rain = 0
KBR1 220954Z 27001KT M03/M08 A3014 RMK A01 T10291082  RH  067%=      5-min Rain = 0
KBR1 220955Z 27001KT M03/M08 A3014 RMK A01 T10291082  RH  067%=      5-min Rain = 0
KBR1 220956Z 26001KT M03/M08 A3014 RMK A01 T10291082  RH  067%=      5-min Rain = 0
KBR1 220957Z 25001KT M03/M08 A3014 RMK A01 T10281082  RH  067%=      5-min Rain = 0
KBR1 220958Z 24001KT M03/M08 A3014 RMK A01 T10281081  RH  067%=      5-min Rain = 0
KBR1 220959Z 24001KT M03/M08 A3014 RMK A01 T10281081  RH  066%=      5-min Rain = 0
KBR1 221000Z 24001KT M03/M08 A3014 RMK A01 T10271081  RH  066%=      5-min Rain = 0
KBR1 221001Z 25001KT M03/M08 A3014 RMK A01 T10271082  RH  066%=      5-min Rain = 0
KBR1 221002Z 26001KT M03/M08 A3014 RMK A01 T10271082  RH  066%=      5-min Rain = 0
KBR1 221003Z 27001KT M03/M08 A3014 RMK A01 T10271082  RH  066%=      5-min Rain = 0
KBR1 221004Z 28001KT M03/M08 A3014 RMK A01 T10271082  RH  066%=      5-min Rain = 0
KBR1 221005Z 27001KT M03/M08 A3014 RMK A01 T10271082  RH  066%=      5-min Rain = 0
KBR1 221006Z 24001KT M03/M08 A3013 RMK A01 T10281082  RH  066%=      5-min Rain = 0
KBR1 221007Z 23001KT M03/M08 A3013 RMK A01 T10281082  RH  066%=      5-min Rain = 0
KBR1 221008Z 23001KT M03/M08 A3013 RMK A01 T10281082  RH  067%=      5-min Rain = 0
KBR1 221009Z 23002KT M03/M08 A3013 RMK A01 T10281082  RH  067%=      5-min Rain = 0
KBR1 221010Z 24002KT M03/M08 A3013 RMK A01 T10281082  RH  067%=      5-min Rain = 0
KBR1 221011Z 26002KT M03/M08 A3013 RMK A01 T10281082  RH  067%=      5-min Rain = 0
KBR1 221012Z 26002KT M03/M08 A3013 RMK A01 T10281081  RH  067%=      5-min Rain = 0
KBR1 221013Z 25002KT M03/M08 A3014 RMK A01 T10281082  RH  067%=      5-min Rain = 0
KBR1 221014Z 25001KT M03/M08 A3014 RMK A01 T10291082  RH  067%=      5-min Rain = 0
KBR1 221015Z 25002KT M03/M08 A3014 RMK A01 T10301083  RH  066%=      5-min Rain = 0
KBR1 221016Z 25002KT M03/M08 A3014 RMK A01 T10311084  RH  067%=      5-min Rain = 0
KBR1 221017Z 26002KT M03/M08 A3014 RMK A01 T10321084  RH  067%=      5-min Rain = 0
KBR1 221018Z 27002KT M03/M08 A3014 RMK A01 T10331084  RH  068%=      5-min Rain = 0
KBR1 221019Z 27002KT M03/M08 A3014 RMK A01 T10341084  RH  068%=      5-min Rain = 0
KBR1 221020Z 27002KT M04/M09 A3014 RMK A01 T10361085  RH  069%=      5-min Rain = 0
KBR1 221021Z 27002KT M04/M09 A3014 RMK A01 T10371086  RH  069%=      5-min Rain = 0
KBR1 221022Z 27002KT M04/M09 A3014 RMK A01 T10381085  RH  070%=      5-min Rain = 0
KBR1 221023Z 26002KT M04/M08 A3014 RMK A01 T10381084  RH  071%=      5-min Rain = 0
KBR1 221024Z 26002KT M04/M08 A3014 RMK A01 T10391083  RH  071%=      5-min Rain = 0
KBR1 221025Z 25002KT M04/M08 A3014 RMK A01 T10381082  RH  072%=      5-min Rain = 0
KBR1 221026Z 25002KT M04/M08 A3014 RMK A01 T10381082  RH  072%=      5-min Rain = 0
KBR1 221027Z 25002KT M04/M08 A3014 RMK A01 T10371082  RH  071%=      5-min Rain = 0
KBR1 221028Z 27002KT M04/M08 A3014 RMK A01 T10371082  RH  071%=      5-min Rain = 0
KBR1 221029Z 29002KT M04/M08 A3014 RMK A01 T10381083  RH  070%=      5-min Rain = 0
KBR1 221030Z 30002KT M04/M09 A3013 RMK A01 T10401086  RH  071%=      5-min Rain = 0
KBR1 221031Z 30002KT M04/M09 A3013 RMK A01 T10431087  RH  071%=      5-min Rain = 0
KBR1 221032Z 29002KT M05/M09 A3013 RMK A01 T10461088  RH  072%=      5-min Rain = 0
KBR1 221033Z 29002KT M05/M09 A3013 RMK A01 T10471086  RH  074%=      5-min Rain = 0
KBR1 221034Z 30003KT M05/M09 A3013 RMK A01 T10461085  RH  075%=      5-min Rain = 0
KBR1 221035Z 31002KT M05/M08 A3013 RMK A01 T10461084  RH  075%=      5-min Rain = 0
KBR1 221036Z 31002KT M05/M08 A3013 RMK A01 T10451082  RH  075%=      5-min Rain = 0
KBR1 221037Z 32002KT M04/M08 A3013 RMK A01 T10431081  RH  075%=      5-min Rain = 0
KBR1 221038Z 32003KT M04/M08 A3013 RMK A01 T10421081  RH  074%=      5-min Rain = 0
KBR1 221039Z 32003KT M04/M08 A3013 RMK A01 T10411082  RH  073%=      5-min Rain = 0
KBR1 221040Z 32003KT M04/M08 A3013 RMK A01 T10411083  RH  073%=      5-min Rain = 0
KBR1 221041Z 31004KT M04/M08 A3013 RMK A01 T10421084  RH  073%=      5-min Rain = 0
KBR1 221042Z 31004KT M04/M08 A3013 RMK A01 T10441084  RH  073%=      5-min Rain = 0
KBR1 221043Z 31004KT M05/M08 A3013 RMK A01 T10451084  RH  074%=      5-min Rain = 0
KBR1 221044Z 30004KT M05/M08 A3013 RMK A01 T10451084  RH  075%=      5-min Rain = 0
KBR1 221045Z 30004KT M05/M08 A3013 RMK A01 T10451083  RH  075%=      5-min Rain = 0
KBR1 221046Z 31003KT M05/M08 A3013 RMK A01 T10451083  RH  075%=      5-min Rain = 0
KBR1 221047Z 31003KT M05/M08 A3013 RMK A01 T10451083  RH  075%=      5-min Rain = 0
KBR1 221048Z 30002KT M04/M08 A3012 RMK A01 T10441082  RH  075%=      5-min Rain = 0
KBR1 221049Z 31002KT M04/M08 A3012 RMK A01 T10431081  RH  075%=      5-min Rain = 0
KBR1 221050Z 30002KT M04/M08 A3013 RMK A01 T10431081  RH  074%=      5-min Rain = 0
KBR1 221051Z 30002KT M04/M08 A3013 RMK A01 T10421081  RH  074%=      5-min Rain = 0
KBR1 221052Z 30002KT M04/M08 A3013 RMK A01 T10411081  RH  074%=      5-min Rain = 0
KBR1 221053Z 30002KT M04/M08 A3013 RMK A01 T10411081  RH  074%=      5-min Rain = 0
KBR1 221054Z 29002KT M04/M08 A3013 RMK A01 T10411081  RH  074%=      5-min Rain = 0
KBR1 221055Z 29002KT M04/M08 A3013 RMK A01 T10401081  RH  073%=      5-min Rain = 0
KBR1 221056Z 28001KT M04/M08 A3013 RMK A01 T10401081  RH  073%=      5-min Rain = 0
KBR1 221057Z 28001KT M04/M08 A3013 RMK A01 T10401080  RH  073%=      5-min Rain = 0
KBR1 221058Z 27001KT M04/M08 A3013 RMK A01 T10381079  RH  073%=      5-min Rain = 0
KBR1 221059Z 27001KT M04/M08 A3013 RMK A01 T10371079  RH  073%=      5-min Rain = 0
KBR1 221100Z 27001KT M04/M08 A3013 RMK A01 T10361079  RH  072%=      5-min Rain = 0
KBR1 221101Z 26001KT M03/M08 A3013 RMK A01 T10341079  RH  071%=      5-min Rain = 0
KBR1 221102Z 26001KT M03/M08 A3013 RMK A01 T10331079  RH  071%=      5-min Rain = 0
KBR1 221103Z 26002KT M03/M08 A3013 RMK A01 T10331080  RH  070%=      5-min Rain = 0
KBR1 221104Z 26002KT M03/M08 A3013 RMK A01 T10341080  RH  070%=      5-min Rain = 0
KBR1 221105Z 26002KT M03/M08 A3013 RMK A01 T10331080  RH  070%=      5-min Rain = 0
KBR1 221106Z 25002KT M03/M08 A3013 RMK A01 T10331080  RH  070%=      5-min Rain = 0
KBR1 221107Z 25002KT M03/M08 A3013 RMK A01 T10341080  RH  070%=      5-min Rain = 0
KBR1 221108Z 25002KT M03/M08 A3013 RMK A01 T10341080  RH  070%=      5-min Rain = 0
KBR1 221109Z 26002KT M03/M08 A3013 RMK A01 T10331080  RH  070%=      5-min Rain = 0
KBR1 221110Z 27002KT M03/M08 A3013 RMK A01 T10341080  RH  070%=      5-min Rain = 0
KBR1 221111Z 28002KT M03/M08 A3013 RMK A01 T10341081  RH  070%=      5-min Rain = 0
KBR1 221112Z 28003KT M04/M08 A3013 RMK A01 T10351081  RH  070%=      5-min Rain = 0
KBR1 221113Z 29003KT M04/M08 A3014 RMK A01 T10361081  RH  071%=      5-min Rain = 0
KBR1 221114Z 29003KT M04/M08 A3013 RMK A01 T10361081  RH  071%=      5-min Rain = 0
KBR1 221115Z 29003KT M04/M08 A3013 RMK A01 T10381083  RH  071%=      5-min Rain = 0
KBR1 221116Z 29003KT M04/M09 A3013 RMK A01 T10411085  RH  072%=      5-min Rain = 0
KBR1 221117Z 28002KT M04/M09 A3013 RMK A01 T10431086  RH  072%=      5-min Rain = 0
KBR1 221118Z 28002KT M05/M08 A3013 RMK A01 T10451084  RH  074%=      5-min Rain = 0
KBR1 221119Z 27003KT M04/M08 A3013 RMK A01 T10431081  RH  075%=      5-min Rain = 0
KBR1 221120Z 27002KT M04/M08 A3013 RMK A01 T10411080  RH  074%=      5-min Rain = 0
KBR1 221121Z 26002KT M04/M08 A3013 RMK A01 T10401081  RH  073%=      5-min Rain = 0
KBR1 221122Z 26002KT M04/M08 A3013 RMK A01 T10411082  RH  073%=      5-min Rain = 0
KBR1 221123Z 27002KT M04/M08 A3013 RMK A01 T10431083  RH  073%=      5-min Rain = 0
KBR1 221124Z 27002KT M04/M08 A3013 RMK A01 T10441083  RH  074%=      5-min Rain = 0
KBR1 221125Z 28002KT M05/M08 A3013 RMK A01 T10451083  RH  075%=      5-min Rain = 0
KBR1 221126Z 28002KT M05/M08 A3013 RMK A01 T10451083  RH  075%=      5-min Rain = 0
KBR1 221127Z 28002KT M05/M08 A3013 RMK A01 T10451082  RH  076%=      5-min Rain = 0
KBR1 221128Z 27002KT M05/M08 A3013 RMK A01 T10451082  RH  076%=      5-min Rain = 0
KBR1 221129Z 26002KT M05/M08 A3013 RMK A01 T10451081  RH  076%=      5-min Rain = 0
KBR1 221130Z 26001KT M05/M08 A3013 RMK A01 T10461082  RH  076%=      5-min Rain = 0
KBR1 221131Z 25001KT M05/M08 A3013 RMK A01 T10461082  RH  076%=      5-min Rain = 0
KBR1 221132Z 25001KT M05/M08 A3013 RMK A01 T10461082  RH  076%=      5-min Rain = 0
KBR1 221133Z 25001KT M05/M08 A3013 RMK A01 T10451081  RH  076%=      5-min Rain = 0
KBR1 221134Z 25000KT M04/M08 A3013 RMK A01 T10441079  RH  076%=      5-min Rain = 0
KBR1 221135Z 25000KT M04/M08 A3013 RMK A01 T10431079  RH  076%=      5-min Rain = 0
KBR1 221136Z 25000KT M04/M08 A3013 RMK A01 T10421079  RH  075%=      5-min Rain = 0
KBR1 221137Z 00000KT M04/M08 A3013 RMK A01 T10411079  RH  075%=      5-min Rain = 0
KBR1 221138Z 00000KT M04/M08 A3013 RMK A01 T10411079  RH  074%=      5-min Rain = 0
KBR1 221139Z 00000KT M04/M08 A3012 RMK A01 T10401079  RH  074%=      5-min Rain = 0
KBR1 221140Z 00000KT M04/M08 A3012 RMK A01 T10391079  RH  074%=      5-min Rain = 0
KBR1 221141Z 00000KT M04/M08 A3012 RMK A01 T10381079  RH  073%=      5-min Rain = 0
KBR1 221142Z 00000KT M04/M08 A3012 RMK A01 T10371079  RH  073%=      5-min Rain = 0
KBR1 221143Z 00000KT M04/M08 A3012 RMK A01 T10361079  RH  072%=      5-min Rain = 0
KBR1 221144Z 00000KT M04/M08 A3012 RMK A01 T10351079  RH  072%=      5-min Rain = 0
KBR1 221145Z 19000KT M03/M08 A3012 RMK A01 T10341079  RH  071%=      5-min Rain = 0
KBR1 221146Z 18001KT M03/M08 A3012 RMK A01 T10331079  RH  071%=      5-min Rain = 0
KBR1 221147Z 19001KT M03/M08 A3012 RMK A01 T10321078  RH  070%=      5-min Rain = 0
KBR1 221148Z 19001KT M03/M08 A3012 RMK A01 T10311078  RH  070%=      5-min Rain = 0
KBR1 221149Z 00000KT M03/M08 A3012 RMK A01 T10301079  RH  069%=      5-min Rain = 0
KBR1 221150Z 00000KT M03/M08 A3012 RMK A01 T10301080  RH  069%=      5-min Rain = 0
KBR1 221151Z 00000KT M03/M08 A3012 RMK A01 T10301080  RH  069%=      5-min Rain = 0
KBR1 221152Z 00000KT M03/M08 A3012 RMK A01 T10321082  RH  068%=      5-min Rain = 0
KBR1 221153Z 25001KT M03/M08 A3012 RMK A01 T10331082  RH  069%=      5-min Rain = 0
KBR1 221154Z 25001KT M03/M08 A3012 RMK A01 T10331081  RH  069%=      5-min Rain = 0
KBR1 221155Z 24001KT M03/M08 A3012 RMK A01 T10331081  RH  070%=      5-min Rain = 0
KBR1 221156Z 22001KT M03/M08 A3012 RMK A01 T10341081  RH  070%=      5-min Rain = 0
KBR1 221157Z 22002KT M03/M08 A3012 RMK A01 T10341082  RH  070%=      5-min Rain = 0
KBR1 221158Z 21002KT M04/M08 A3012 RMK A01 T10351082  RH  070%=      5-min Rain = 0
KBR1 221159Z 21002KT M04/M08 A3012 RMK A01 T10351082  RH  070%=      5-min Rain = 0
KBR1 221200Z 21002KT M04/M08 A3012 RMK A01 T10351082  RH  070%=      5-min Rain = 0
KBR1 221201Z 22002KT M04/M08 A3013 RMK A01 T10351082  RH  070%=      5-min Rain = 0
KBR1 221202Z 23002KT M04/M08 A3013 RMK A01 T10361082  RH  071%=      5-min Rain = 0
KBR1 221203Z 24003KT M04/M08 A3013 RMK A01 T10361082  RH  071%=      5-min Rain = 0
KBR1 221204Z 24003KT M04/M08 A3013 RMK A01 T10361082  RH  071%=      5-min Rain = 0
KBR1 221205Z 24003KT M04/M08 A3013 RMK A01 T10371082  RH  071%=      5-min Rain = 0
KBR1 221206Z 24003KT M04/M08 A3013 RMK A01 T10381083  RH  071%=      5-min Rain = 0
KBR1 221207Z 25003KT M04/M09 A3013 RMK A01 T10391085  RH  071%=      5-min Rain = 0
KBR1 221208Z 25003KT M04/M09 A3013 RMK A01 T10421085  RH  072%=      5-min Rain = 0
KBR1 221209Z 25003KT M04/M09 A3013 RMK A01 T10431085  RH  073%=      5-min Rain = 0
KBR1 221210Z 26003KT M04/M08 A3013 RMK A01 T10441084  RH  073%=      5-min Rain = 0
KBR1 221211Z 26003KT M04/M08 A3013 RMK A01 T10441084  RH  074%=      5-min Rain = 0
KBR1 221212Z 27003KT M04/M08 A3013 RMK A01 T10441083  RH  074%=      5-min Rain = 0
KBR1 221213Z 28003KT M04/M08 A3013 RMK A01 T10441083  RH  074%=      5-min Rain = 0
KBR1 221214Z 28003KT M05/M08 A3013 RMK A01 T10451084  RH  074%=      5-min Rain = 0
KBR1 221215Z 27003KT M05/M09 A3012 RMK A01 T10471085  RH  075%=      5-min Rain = 0
KBR1 221216Z 27002KT M05/M09 A3012 RMK A01 T10491087  RH  075%=      5-min Rain = 0
KBR1 221217Z 27003KT M05/M09 A3012 RMK A01 T10511087  RH  076%=      5-min Rain = 0
KBR1 221218Z 27003KT M05/M09 A3012 RMK A01 T10511086  RH  076%=      5-min Rain = 0
KBR1 221219Z 28003KT M05/M09 A3012 RMK A01 T10531087  RH  077%=      5-min Rain = 0
KBR1 221220Z 29003KT M05/M09 A3012 RMK A01 T10541087  RH  078%=      5-min Rain = 0
KBR1 221221Z 29004KT M06/M09 A3012 RMK A01 T10551087  RH  078%=      5-min Rain = 0
KBR1 221222Z 29004KT M06/M09 A3012 RMK A01 T10561087  RH  079%=      5-min Rain = 0
KBR1 221223Z 28003KT M06/M09 A3013 RMK A01 T10571087  RH  079%=      5-min Rain = 0
KBR1 221224Z 29003KT M06/M09 A3013 RMK A01 T10591089  RH  079%=      5-min Rain = 0
KBR1 221225Z 29004KT M06/M09 A3013 RMK A01 T10601089  RH  080%=      5-min Rain = 0
KBR1 221226Z 29004KT M06/M09 A3013 RMK A01 T10601089  RH  080%=      5-min Rain = 0
KBR1 221227Z 29003KT M06/M09 A3013 RMK A01 T10611089  RH  081%=      5-min Rain = 0
KBR1 221228Z 30003KT M06/M09 A3013 RMK A01 T10611088  RH  081%=      5-min Rain = 0
KBR1 221229Z 30003KT M06/M09 A3013 RMK A01 T10611088  RH  081%=      5-min Rain = 0
KBR1 221230Z 30003KT M06/M09 A3013 RMK A01 T10601087  RH  081%=      5-min Rain = 0
KBR1 221231Z 30002KT M06/M09 A3013 RMK A01 T10601087  RH  081%=      5-min Rain = 0
KBR1 221232Z 29002KT M06/M09 A3013 RMK A01 T10601087  RH  081%=      5-min Rain = 0
KBR1 221233Z 29002KT M06/M09 A3013 RMK A01 T10591086  RH  081%=      5-min Rain = 0
KBR1 221234Z 30002KT M06/M09 A3013 RMK A01 T10581085  RH  081%=      5-min Rain = 0
KBR1 221235Z 29002KT M06/M08 A3013 RMK A01 T10571084  RH  081%=      5-min Rain = 0
KBR1 221236Z 29001KT M06/M08 A3012 RMK A01 T10551084  RH  080%=      5-min Rain = 0
KBR1 221237Z 31001KT M05/M08 A3012 RMK A01 T10541083  RH  080%=      5-min Rain = 0
KBR1 221238Z 29001KT M05/M08 A3012 RMK A01 T10531083  RH  079%=      5-min Rain = 0
KBR1 221239Z 25001KT M05/M08 A3012 RMK A01 T10521084  RH  078%=      5-min Rain = 0
KBR1 221240Z 24002KT M05/M08 A3012 RMK A01 T10511084  RH  078%=      5-min Rain = 0
KBR1 221241Z 23002KT M05/M08 A3012 RMK A01 T10511083  RH  078%=      5-min Rain = 0
KBR1 221242Z 21001KT M05/M08 A3012 RMK A01 T10501083  RH  078%=      5-min Rain = 0
KBR1 221243Z 21001KT M05/M08 A3012 RMK A01 T10501084  RH  077%=      5-min Rain = 0
KBR1 221244Z 20002KT M05/M09 A3012 RMK A01 T10501085  RH  077%=      5-min Rain = 0
KBR1 221245Z 21002KT M05/M09 A3012 RMK A01 T10501085  RH  077%=      5-min Rain = 0
KBR1 221246Z 21002KT M05/M09 A3012 RMK A01 T10501085  RH  077%=      5-min Rain = 0
KBR1 221247Z 22003KT M05/M09 A3012 RMK A01 T10501085  RH  077%=      5-min Rain = 0
KBR1 221248Z 22002KT M05/M09 A3012 RMK A01 T10501085  RH  077%=      5-min Rain = 0
KBR1 221249Z 22002KT M05/M08 A3012 RMK A01 T10491084  RH  077%=      5-min Rain = 0
KBR1 221250Z 22003KT M05/M08 A3012 RMK A01 T10481083  RH  076%=      5-min Rain = 0
KBR1 221251Z 22003KT M05/M08 A3012 RMK A01 T10471083  RH  076%=      5-min Rain = 0
KBR1 221252Z 23003KT M05/M08 A3012 RMK A01 T10471084  RH  075%=      5-min Rain = 0
KBR1 221253Z 23003KT M05/M09 A3012 RMK A01 T10481085  RH  075%=      5-min Rain = 0
KBR1 221254Z 23003KT M05/M09 A3012 RMK A01 T10481086  RH  075%=      5-min Rain = 0
KBR1 221255Z 24004KT M05/M09 A3012 RMK A01 T10491087  RH  075%=      5-min Rain = 0
KBR1 221256Z 24003KT M05/M09 A3012 RMK A01 T10501087  RH  075%=      5-min Rain = 0
KBR1 221257Z 24003KT M05/M09 A3012 RMK A01 T10501087  RH  075%=      5-min Rain = 0
KBR1 221258Z 24003KT M05/M09 A3012 RMK A01 T10521088  RH  075%=      5-min Rain = 0
KBR1 221259Z 25003KT M05/M09 A3012 RMK A01 T10521088  RH  076%=      5-min Rain = 0
KBR1 221300Z 25003KT M05/M09 A3012 RMK A01 T10521087  RH  076%=      5-min Rain = 0
KBR1 221301Z 26003KT M05/M09 A3012 RMK A01 T10521086  RH  077%=      5-min Rain = 0
KBR1 221302Z 26003KT M05/M09 A3012 RMK A01 T10511086  RH  077%=      5-min Rain = 0
KBR1 221303Z 25003KT M05/M09 A3012 RMK A01 T10511086  RH  077%=      5-min Rain = 0
KBR1 221304Z 26003KT M05/M09 A3012 RMK A01 T10511086  RH  077%=      5-min Rain = 0
KBR1 221305Z 26003KT M05/M09 A3012 RMK A01 T10511086  RH  076%=      5-min Rain = 0
KBR1 221306Z 26003KT M05/M09 A3012 RMK A01 T10511086  RH  076%=      5-min Rain = 0
KBR1 221307Z 26003KT M05/M09 A3012 RMK A01 T10501085  RH  076%=      5-min Rain = 0
KBR1 221308Z 26003KT M05/M09 A3012 RMK A01 T10501085  RH  076%=      5-min Rain = 0
KBR1 221309Z 26003KT M05/M09 A3012 RMK A01 T10491085  RH  076%=      5-min Rain = 0
KBR1 221310Z 26004KT M05/M09 A3012 RMK A01 T10491086  RH  075%=      5-min Rain = 0
KBR1 221311Z 25004KT M05/M09 A3012 RMK A01 T10481086  RH  075%=      5-min Rain = 0
KBR1 221312Z 26004KT M05/M09 A3012 RMK A01 T10481086  RH  075%=      5-min Rain = 0
KBR1 221313Z 27003KT M05/M09 A3012 RMK A01 T10481086  RH  075%=      5-min Rain = 0
KBR1 221314Z 27003KT M05/M09 A3012 RMK A01 T10481086  RH  074%=      5-min Rain = 0
KBR1 221315Z 28003KT M05/M09 A3012 RMK A01 T10481087  RH  075%=      5-min Rain = 0
KBR1 221316Z 29003KT M05/M09 A3012 RMK A01 T10491088  RH  075%=      5-min Rain = 0
KBR1 221317Z 29004KT M05/M09 A3012 RMK A01 T10521090  RH  075%=      5-min Rain = 0
KBR1 221318Z 29004KT M06/M09 A3012 RMK A01 T10571094  RH  075%=      5-min Rain = 0
KBR1 221319Z 30004KT M06/M09 A3012 RMK A01 T10601094  RH  077%=      5-min Rain = 0
KBR1 221320Z 30004KT M06/M09 A3012 RMK A01 T10611093  RH  078%=      5-min Rain = 0
KBR1 221321Z 31005KT M06/M09 A3012 RMK A01 T10621093  RH  079%=      5-min Rain = 0
KBR1 221322Z 30006KT M06/M09 A3012 RMK A01 T10621090  RH  080%=      5-min Rain = 0
KBR1 221323Z 30005KT M06/M09 A3012 RMK A01 T10581085  RH  081%=      5-min Rain = 0
KBR1 221324Z 31005KT M06/M08 A3012 RMK A01 T10551084  RH  080%=      5-min Rain = 0
KBR1 221325Z 31005KT M05/M08 A3012 RMK A01 T10531084  RH  079%=      5-min Rain = 0
KBR1 221326Z 31005KT M05/M09 A3012 RMK A01 T10541086  RH  078%=      5-min Rain = 0
KBR1 221327Z 30005KT M05/M09 A3012 RMK A01 T10541087  RH  078%=      5-min Rain = 0
KBR1 221328Z 30006KT M06/M09 A3012 RMK A01 T10551087  RH  078%=      5-min Rain = 0
KBR1 221329Z 29006KT M06/M09 A3012 RMK A01 T10551087  RH  079%=      5-min Rain = 0
KBR1 221330Z 29005KT M05/M09 A3012 RMK A01 T10541085  RH  079%=      5-min Rain = 0
KBR1 221331Z 29005KT M05/M09 A3012 RMK A01 T10541085  RH  079%=      5-min Rain = 0
KBR1 221332Z 29005KT M05/M09 A3012 RMK A01 T10531085  RH  079%=      5-min Rain = 0
KBR1 221333Z 29007KT M05/M09 A3012 RMK A01 T10531085  RH  079%=      5-min Rain = 0
KBR1 221334Z 28008KT M05/M08 A3012 RMK A01 T10521083  RH  079%=      5-min Rain = 0
KBR1 221335Z 28007KT M05/M08 A3012 RMK A01 T10501080  RH  079%=      5-min Rain = 0
KBR1 221336Z 28007KT M05/M08 A3012 RMK A01 T10471079  RH  078%=      5-min Rain = 0
KBR1 221337Z 28007KT M05/M08 A3012 RMK A01 T10461079  RH  078%=      5-min Rain = 0
KBR1 221338Z 28006KT M05/M08 A3012 RMK A01 T10451079  RH  077%=      5-min Rain = 0
KBR1 221339Z 28006KT M04/M08 A3012 RMK A01 T10441080  RH  076%=      5-min Rain = 0
KBR1 221340Z 28006KT M04/M08 A3012 RMK A01 T10441080  RH  076%=      5-min Rain = 0
KBR1 221341Z 28005KT M04/M08 A3012 RMK A01 T10431080  RH  075%=      5-min Rain = 0
KBR1 221342Z 29005KT M04/M08 A3012 RMK A01 T10421080  RH  075%=      5-min Rain = 0
KBR1 221343Z 29005KT M04/M08 A3012 RMK A01 T10421080  RH  075%=      5-min Rain = 0
KBR1 221344Z 29005KT M04/M08 A3012 RMK A01 T10421081  RH  075%=      5-min Rain = 0
KBR1 221345Z 29005KT M04/M08 A3012 RMK A01 T10431081  RH  075%=      5-min Rain = 0
KBR1 221346Z 29005KT M04/M08 A3012 RMK A01 T10441081  RH  075%=      5-min Rain = 0
KBR1 221347Z 28005KT M05/M08 A3012 RMK A01 T10451082  RH  075%=      5-min Rain = 0
KBR1 221348Z 27005KT M05/M08 A3012 RMK A01 T10451082  RH  075%=      5-min Rain = 0
KBR1 221349Z 27005KT M05/M08 A3012 RMK A01 T10451082  RH  075%=      5-min Rain = 0
KBR1 221350Z 27004KT M05/M08 A3012 RMK A01 T10461083  RH  076%=      5-min Rain = 0
KBR1 221351Z 27003KT M05/M08 A3012 RMK A01 T10471083  RH  076%=      5-min Rain = 0
KBR1 221352Z 28003KT M05/M08 A3012 RMK A01 T10491083  RH  077%=      5-min Rain = 0
KBR1 221353Z 28003KT M05/M08 A3012 RMK A01 T10481082  RH  077%=      5-min Rain = 0
KBR1 221354Z 29003KT M05/M08 A3012 RMK A01 T10481082  RH  077%=      5-min Rain = 0
KBR1 221355Z 29004KT M05/M08 A3012 RMK A01 T10471081  RH  077%=      5-min Rain = 0
KBR1 221356Z 29004KT M05/M08 A3012 RMK A01 T10481081  RH  077%=      5-min Rain = 0
KBR1 221357Z 29006KT M05/M08 A3012 RMK A01 T10471080  RH  078%=      5-min Rain = 0
KBR1 221358Z 29006KT M05/M08 A3012 RMK A01 T10451079  RH  077%=      5-min Rain = 0
KBR1 221359Z 29006KT M04/M08 A3012 RMK A01 T10441079  RH  076%=      5-min Rain = 0
KBR1 221400Z 30006KT M04/M08 A3012 RMK A01 T10431079  RH  076%=      5-min Rain = 0
KBR1 221401Z 30006KT M04/M08 A3012 RMK A01 T10431079  RH  076%=      5-min Rain = 0
KBR1 221402Z 29007KT M04/M08 A3012 RMK A01 T10431078  RH  076%=      5-min Rain = 0
KBR1 221403Z 29007KT M04/M08 A3012 RMK A01 T10431077  RH  077%=      5-min Rain = 0
KBR1 221404Z 29007KT M04/M08 A3013 RMK A01 T10421076  RH  077%=      5-min Rain = 0
KBR1 221405Z 29008KT M04/M08 A3013 RMK A01 T10411075  RH  077%=      5-min Rain = 0
KBR1 221406Z 29008KT M04/M08 A3013 RMK A01 T10401075  RH  077%=      5-min Rain = 0
KBR1 221407Z 29008KT M04/M07 A3013 RMK A01 T10391074  RH  077%=      5-min Rain = 0
KBR1 221408Z 29008KT M04/M07 A3013 RMK A01 T10381073  RH  077%=      5-min Rain = 0
KBR1 221409Z 29008KT M04/M07 A3013 RMK A01 T10371073  RH  076%=      5-min Rain = 0
KBR1 221410Z 29008KT M04/M07 A3013 RMK A01 T10351072  RH  075%=      5-min Rain = 0
KBR1 221411Z 29008KT M03/M07 A3013 RMK A01 T10341072  RH  075%=      5-min Rain = 0
KBR1 221412Z 29007KT M03/M07 A3013 RMK A01 T10331071  RH  075%=      5-min Rain = 0
KBR1 221413Z 29007KT M03/M07 A3013 RMK A01 T10321070  RH  075%=      5-min Rain = 0
KBR1 221414Z 28007KT M03/M07 A3013 RMK A01 T10311069  RH  075%=      5-min Rain = 0
KBR1 221415Z 28007KT M03/M07 A3013 RMK A01 T10301068  RH  075%=      5-min Rain = 0
KBR1 221416Z 28007KT M03/M07 A3013 RMK A01 T10281067  RH  075%=      5-min Rain = 0
KBR1 221417Z 28006KT M03/M07 A3013 RMK A01 T10271067  RH  074%=      5-min Rain = 0
KBR1 221418Z 28005KT M03/M07 A3013 RMK A01 T10271066  RH  074%=      5-min Rain = 0
KBR1 221419Z 28004KT M03/M06 A3013 RMK A01 T10261064  RH  075%=      5-min Rain = 0
KBR1 221420Z 27003KT M03/M06 A3013 RMK A01 T10251063  RH  075%=      5-min Rain = 0
KBR1 221421Z 26003KT M03/M06 A3013 RMK A01 T10251063  RH  075%=      5-min Rain = 0
KBR1 221422Z 24003KT M03/M06 A3013 RMK A01 T10261063  RH  075%=      5-min Rain = 0
KBR1 221423Z 26003KT M03/M06 A3013 RMK A01 T10271064  RH  075%=      5-min Rain = 0
KBR1 221424Z 26003KT M03/M06 A3013 RMK A01 T10251064  RH  075%=      5-min Rain = 0
KBR1 221425Z 26003KT M02/M06 A3013 RMK A01 T10231063  RH  074%=      5-min Rain = 0
KBR1 221426Z 27004KT M02/M06 A3013 RMK A01 T10211062  RH  073%=      5-min Rain = 0
KBR1 221427Z 27004KT M02/M06 A3013 RMK A01 T10191061  RH  073%=      5-min Rain = 0
KBR1 221428Z 28004KT M02/M06 A3013 RMK A01 T10181060  RH  073%=      5-min Rain = 0
KBR1 221429Z 28004KT M02/M06 A3013 RMK A01 T10171061  RH  072%=      5-min Rain = 0
KBR1 221430Z 27004KT M02/M06 A3013 RMK A01 T10151061  RH  070%=      5-min Rain = 0
KBR1 221431Z 27004KT M01/M06 A3013 RMK A01 T10131062  RH  069%=      5-min Rain = 0
KBR1 221432Z 26004KT M01/M06 A3013 RMK A01 T10121062  RH  069%=      5-min Rain = 0
KBR1 221433Z 26005KT M01/M06 A3013 RMK A01 T10111061  RH  069%=      5-min Rain = 0
KBR1 221434Z 26004KT M01/M06 A3013 RMK A01 T10121060  RH  070%=      5-min Rain = 0
KBR1 221435Z 26004KT M01/M06 A3013 RMK A01 T10121056  RH  072%=      5-min Rain = 0
KBR1 221436Z 27004KT M01/M06 A3013 RMK A01 T10121055  RH  072%=      5-min Rain = 0
KBR1 221437Z 26004KT M01/M06 A3013 RMK A01 T10121056  RH  072%=      5-min Rain = 0
KBR1 221438Z 25004KT M01/M06 A3014 RMK A01 T10111056  RH  072%=      5-min Rain = 0
KBR1 221439Z 24003KT M01/M05 A3014 RMK A01 T10111054  RH  073%=      5-min Rain = 0
KBR1 221440Z 24003KT M01/M05 A3014 RMK A01 T10101053  RH  073%=      5-min Rain = 0
KBR1 221441Z 24003KT M01/M05 A3014 RMK A01 T10111053  RH  073%=      5-min Rain = 0
KBR1 221442Z 25003KT M01/M05 A3014 RMK A01 T10111052  RH  074%=      5-min Rain = 0
KBR1 221443Z 25003KT M01/M05 A3014 RMK A01 T10111052  RH  074%=      5-min Rain = 0
KBR1 221444Z 26003KT M01/M05 A3014 RMK A01 T10121053  RH  073%=      5-min Rain = 0
KBR1 221445Z 25003KT M01/M05 A3014 RMK A01 T10111052  RH  074%=      5-min Rain = 0
KBR1 221446Z 25003KT M01/M05 A3014 RMK A01 T10101048  RH  075%=      5-min Rain = 0
KBR1 221447Z 24003KT M01/M05 A3014 RMK A01 T10091046  RH  076%=      5-min Rain = 0
KBR1 221448Z 23003KT M01/M05 A3014 RMK A01 T10081046  RH  075%=      5-min Rain = 0
KBR1 221449Z 23004KT M01/M05 A3014 RMK A01 T10081046  RH  075%=      5-min Rain = 0
KBR1 221450Z 24005KT M01/M05 A3014 RMK A01 T10071046  RH  075%=      5-min Rain = 0
KBR1 221451Z 23005KT M01/M05 A3013 RMK A01 T10071047  RH  074%=      5-min Rain = 0
KBR1 221452Z 24005KT M01/M05 A3013 RMK A01 T10061046  RH  074%=      5-min Rain = 0
KBR1 221453Z 24005KT M01/M05 A3013 RMK A01 T10051046  RH  074%=      5-min Rain = 0
KBR1 221454Z 24005KT M01/M05 A3013 RMK A01 T10051046  RH  073%=      5-min Rain = 0
KBR1 221455Z 23004KT M00/M05 A3013 RMK A01 T10031045  RH  073%=      5-min Rain = 0
KBR1 221456Z 22004KT M00/M04 A3013 RMK A01 T10021043  RH  074%=      5-min Rain = 0
KBR1 221457Z 23004KT M00/M04 A3013 RMK A01 T10021042  RH  074%=      5-min Rain = 0
KBR1 221458Z 23003KT M00/M04 A3013 RMK A01 T10011040  RH  075%=      5-min Rain = 0
KBR1 221459Z 22004KT 00/04 A3013 RMK A01 T00000-40  RH  074%=      5-min Rain = 0
KBR1 221500Z 22004KT 00/M04 A3013 RMK A01 T00021042  RH  073%=      5-min Rain = 0
KBR1 221501Z 22004KT 00/M04 A3013 RMK A01 T00031042  RH  072%=      5-min Rain = 0
KBR1 221502Z 22004KT 00/M04 A3014 RMK A01 T00041042  RH  071%=      5-min Rain = 0
KBR1 221503Z 22003KT 01/M04 A3014 RMK A01 T00061040  RH  071%=      5-min Rain = 0
KBR1 221504Z 21004KT 01/M04 A3014 RMK A01 T00071040  RH  071%=      5-min Rain = 0
KBR1 221505Z 21004KT 01/M04 A3014 RMK A01 T00091038  RH  071%=      5-min Rain = 0
KBR1 221506Z 20003KT 01/M04 A3014 RMK A01 T00111037  RH  070%=      5-min Rain = 0
KBR1 221507Z 21005KT 01/M04 A3014 RMK A01 T00131037  RH  070%=      5-min Rain = 0
KBR1 221508Z 20004KT 01/M04 A3014 RMK A01 T00141041  RH  067%=      5-min Rain = 0
KBR1 221509Z 20004KT 02/M04 A3014 RMK A01 T00161038  RH  067%=      5-min Rain = 0
KBR1 221510Z 21005KT 02/M04 A3014 RMK A01 T00171037  RH  067%=      5-min Rain = 0
KBR1 221511Z 22005KT 02/M04 A3014 RMK A01 T00181038  RH  066%=      5-min Rain = 0
KBR1 221512Z 23005KT 02/M04 A3014 RMK A01 T00201035  RH  067%=      5-min Rain = 0
KBR1 221513Z 23005KT 02/M04 A3014 RMK A01 T00221037  RH  065%=      5-min Rain = 0
KBR1 221514Z 23007KT 03/M04 A3014 RMK A01 T00251038  RH  063%=      5-min Rain = 0
KBR1 221515Z 23007KT 03/M04 A3014 RMK A01 T00261040  RH  062%=      5-min Rain = 0
KBR1 221516Z 23007KT 03/M04 A3014 RMK A01 T00281041  RH  061%=      5-min Rain = 0
KBR1 221517Z 23007KT 03/M04 A3014 RMK A01 T00281042  RH  060%=      5-min Rain = 0
KBR1 221518Z 22006KT 03/M04 A3014 RMK A01 T00281041  RH  060%=      5-min Rain = 0
KBR1 221519Z 23007KT 03/M04 A3014 RMK A01 T00291040  RH  060%=      5-min Rain = 0
KBR1 221520Z 22005KT 03/M04 A3014 RMK A01 T00291042  RH  059%=      5-min Rain = 0
KBR1 221521Z 22007KT 03/M04 A3014 RMK A01 T00291042  RH  059%=      5-min Rain = 0
KBR1 221522Z 22006KT 03/M04 A3014 RMK A01 T00301044  RH  058%=      5-min Rain = 0
KBR1 221523Z 22008KT 03/M05 A3014 RMK A01 T00301047  RH  057%=      5-min Rain = 0
KBR1 221524Z 22008KT 03/M05 A3014 RMK A01 T00301047  RH  057%=      5-min Rain = 0
KBR1 221525Z 23007KT 03/M05 A3014 RMK A01 T00311046  RH  057%=      5-min Rain = 0
KBR1 221526Z 23008KT 03/M05 A3014 RMK A01 T00321045  RH  057%=      5-min Rain = 0
KBR1 221527Z 23008KT 03/M05 A3014 RMK A01 T00331049  RH  055%=      5-min Rain = 0
KBR1 221528Z 23008KT 03/M05 A3014 RMK A01 T00331051  RH  054%=      5-min Rain = 0
KBR1 221529Z 23008KT 03/M05 A3014 RMK A01 T00341050  RH  054%=      5-min Rain = 0
KBR1 221530Z 22008KT 03/M05 A3014 RMK A01 T00341048  RH  055%=      5-min Rain = 0
KBR1 221531Z 23008KT 04/M05 A3014 RMK A01 T00351048  RH  054%=      5-min Rain = 0
KBR1 221532Z 23007KT 04/M05 A3014 RMK A01 T00361047  RH  054%=      5-min Rain = 0
KBR1 221533Z 23006KT 04/M04 A3014 RMK A01 T00371044  RH  055%=      5-min Rain = 0
KBR1 221534Z 23007KT 04/M04 A3014 RMK A01 T00391043  RH  055%=      5-min Rain = 0
KBR1 221535Z 24007KT 04/M04 A3014 RMK A01 T00401044  RH  054%=      5-min Rain = 0
KBR1 221536Z 24005KT 04/M05 A3014 RMK A01 T00411045  RH  054%=      5-min Rain = 0
KBR1 221537Z 24008KT 04/M04 A3014 RMK A01 T00421043  RH  054%=      5-min Rain = 0
KBR1 221538Z 24008KT 04/M05 A3014 RMK A01 T00441051  RH  050%=      5-min Rain = 0
KBR1 221539Z 24008KT 05/M05 A3014 RMK A01 T00461054  RH  048%=      5-min Rain = 0
KBR1 221540Z 25008KT 05/M06 A3014 RMK A01 T00481055  RH  047%=      5-min Rain = 0
KBR1 221541Z 25008KT 05/M06 A3014 RMK A01 T00491056  RH  046%=      5-min Rain = 0
KBR1 221542Z 25010KT 05/M05 A3014 RMK A01 T00521054  RH  046%=      5-min Rain = 0
KBR1 221543Z 25009KT 05/M06 A3014 RMK A01 T00531058  RH  044%=      5-min Rain = 0
KBR1 221544Z 25008KT 05/M06 A3014 RMK A01 T00541060  RH  044%=      5-min Rain = 0
KBR1 221545Z 25009KT 05/M06 A3014 RMK A01 T00541061  RH  043%=      5-min Rain = 0
KBR1 221546Z 24008KT 06/M06 A3014 RMK A01 T00551062  RH  043%=      5-min Rain = 0
KBR1 221547Z 25007KT 06/M06 A3014 RMK A01 T00551061  RH  043%=      5-min Rain = 0
KBR1 221548Z 26009KT 06/M06 A3014 RMK A01 T00561061  RH  043%=      5-min Rain = 0
KBR1 221549Z 25008KT 06/M07 A3014 RMK A01 T00571065  RH  041%=      5-min Rain = 0
KBR1 221550Z 23007KT 06/M06 A3014 RMK A01 T00581059  RH  043%=      5-min Rain = 0
KBR1 221551Z 23009KT 06/M06 A3014 RMK A01 T00601057  RH  043%=      5-min Rain = 0
KBR1 221552Z 24010KT 06/M06 A3014 RMK A01 T00601063  RH  041%=      5-min Rain = 0
KBR1 221553Z 24009KT 06/M07 A3014 RMK A01 T00601065  RH  040%=      5-min Rain = 0
KBR1 221554Z 24009KT 06/M06 A3014 RMK A01 T00601064  RH  041%=      5-min Rain = 0
KBR1 221555Z 24010KT 06/M06 A3014 RMK A01 T00601064  RH  041%=      5-min Rain = 0
KBR1 221556Z 24008KT 06/M07 A3014 RMK A01 T00591065  RH  040%=      5-min Rain = 0
KBR1 221557Z 23009KT 06/M06 A3014 RMK A01 T00591064  RH  041%=      5-min Rain = 0
KBR1 221558Z 24009KT 06/M06 A3013 RMK A01 T00601060  RH  042%=      5-min Rain = 0
KBR1 221559Z 24009KT 06/M06 A3013 RMK A01 T00611061  RH  041%=      5-min Rain = 0
KBR1 221600Z 23008KT 06/M06 A3013 RMK A01 T00611062  RH  041%=      5-min Rain = 0
KBR1 221601Z 23009KT 06/M06 A3013 RMK A01 T00621057  RH  042%=      5-min Rain = 0
KBR1 221602Z 24008KT 06/M06 A3013 RMK A01 T00631058  RH  042%=      5-min Rain = 0
KBR1 221603Z 24007KT 06/M06 A3013 RMK A01 T00631061  RH  041%=      5-min Rain = 0
KBR1 221604Z 24008KT 06/M06 A3013 RMK A01 T00631062  RH  041%=      5-min Rain = 0
KBR1 221605Z 23006KT 06/M06 A3013 RMK A01 T00631059  RH  041%=      5-min Rain = 0
KBR1 221606Z 24008KT 07/M05 A3013 RMK A01 T00661054  RH  042%=      5-min Rain = 0
KBR1 221607Z 24007KT 07/M06 A3013 RMK A01 T00671062  RH  039%=      5-min Rain = 0
KBR1 221608Z 23008KT 07/M06 A3013 RMK A01 T00661061  RH  040%=      5-min Rain = 0
KBR1 221609Z 24008KT 07/M06 A3013 RMK A01 T00661061  RH  040%=      5-min Rain = 0
KBR1 221610Z 23009KT 07/M06 A3013 RMK A01 T00661058  RH  041%=      5-min Rain = 0
KBR1 221611Z 21007KT 07/M05 A3013 RMK A01 T00671054  RH  042%=      5-min Rain = 0
KBR1 221612Z 19006KT 07/M05 A3012 RMK A01 T00661051  RH  043%=      5-min Rain = 0
KBR1 221613Z 20006KT 07/M05 A3012 RMK A01 T00661049  RH  044%=      5-min Rain = 0
KBR1 221614Z 20007KT 06/M05 A3012 RMK A01 T00641052  RH  043%=      5-min Rain = 0
KBR1 221615Z 19006KT 06/M05 A3012 RMK A01 T00631051  RH  044%=      5-min Rain = 0
KBR1 221616Z 20007KT 07/M05 A3012 RMK A01 T00651047  RH  045%=      5-min Rain = 0
KBR1 221617Z 20008KT 07/M05 A3012 RMK A01 T00661046  RH  045%=      5-min Rain = 0
KBR1 221618Z 19008KT 07/M04 A3012 RMK A01 T00661044  RH  045%=      5-min Rain = 0
KBR1 221619Z 18007KT 06/M05 A3012 RMK A01 T00641047  RH  045%=      5-min Rain = 0
KBR1 221620Z 19006KT 06/M05 A3012 RMK A01 T00621047  RH  045%=      5-min Rain = 0
KBR1 221621Z 20007KT 06/M05 A3012 RMK A01 T00631046  RH  046%=      5-min Rain = 0
KBR1 221622Z 19008KT 06/M05 A3012 RMK A01 T00611047  RH  046%=      5-min Rain = 0
KBR1 221623Z 19007KT 06/M05 A3012 RMK A01 T00591046  RH  047%=      5-min Rain = 0
KBR1 221624Z 21006KT 06/M04 A3012 RMK A01 T00621041  RH  047%=      5-min Rain = 0
KBR1 221625Z 20006KT 06/M04 A3012 RMK A01 T00641042  RH  047%=      5-min Rain = 0
KBR1 221626Z 19008KT 06/M04 A3012 RMK A01 T00641044  RH  046%=      5-min Rain = 0
KBR1 221627Z 19008KT 06/M05 A3012 RMK A01 T00631046  RH  045%=      5-min Rain = 0
KBR1 221628Z 18007KT 06/M05 A3012 RMK A01 T00621045  RH  046%=      5-min Rain = 0
KBR1 221629Z 18008KT 06/M04 A3012 RMK A01 T00641043  RH  046%=      5-min Rain = 0
KBR1 221630Z 20006KT 07/M04 A3012 RMK A01 T00651044  RH  045%=      5-min Rain = 0
KBR1 221631Z 19008KT 07/M04 A3012 RMK A01 T00661044  RH  045%=      5-min Rain = 0
KBR1 221632Z 19008KT 07/M05 A3012 RMK A01 T00661046  RH  045%=      5-min Rain = 0
KBR1 221633Z 19006KT 07/M05 A3012 RMK A01 T00661048  RH  044%=      5-min Rain = 0
KBR1 221634Z 20005KT 07/M05 A3012 RMK A01 T00651046  RH  045%=      5-min Rain = 0
KBR1 221635Z 21006KT 07/M04 A3012 RMK A01 T00691043  RH  045%=      5-min Rain = 0
KBR1 221636Z 21008KT 07/M05 A3012 RMK A01 T00701046  RH  043%=      5-min Rain = 0
KBR1 221637Z 19005KT 07/M05 A3012 RMK A01 T00691051  RH  042%=      5-min Rain = 0
KBR1 221638Z 20007KT 07/M05 A3013 RMK A01 T00671051  RH  043%=      5-min Rain = 0
KBR1 221639Z 22006KT 07/M05 A3013 RMK A01 T00681049  RH  043%=      5-min Rain = 0
KBR1 221640Z 21006KT 07/M05 A3013 RMK A01 T00681049  RH  043%=      5-min Rain = 0
KBR1 221641Z 24006KT 07/M05 A3013 RMK A01 T00681050  RH  042%=      5-min Rain = 0
KBR1 221642Z 24007KT 07/M05 A3013 RMK A01 T00691050  RH  043%=      5-min Rain = 0
KBR1 221643Z 23006KT 07/M05 A3013 RMK A01 T00691050  RH  043%=      5-min Rain = 0
KBR1 221644Z 23007KT 07/M05 A3013 RMK A01 T00691050  RH  042%=      5-min Rain = 0
KBR1 221645Z 23007KT 07/M05 A3013 RMK A01 T00701050  RH  042%=      5-min Rain = 0
KBR1 221646Z 24008KT 07/M05 A3013 RMK A01 T00711047  RH  043%=      5-min Rain = 0
KBR1 221647Z 23007KT 07/M05 A3013 RMK A01 T00721049  RH  042%=      5-min Rain = 0
KBR1 221648Z 24007KT 07/M05 A3013 RMK A01 T00721049  RH  042%=      5-min Rain = 0
KBR1 221649Z 23006KT 07/M05 A3013 RMK A01 T00731048  RH  042%=      5-min Rain = 0
KBR1 221650Z 24007KT 07/M05 A3012 RMK A01 T00741049  RH  042%=      5-min Rain = 0
KBR1 221651Z 24008KT 07/M05 A3012 RMK A01 T00731052  RH  040%=      5-min Rain = 0
KBR1 221652Z 23006KT 07/M05 A3012 RMK A01 T00731053  RH  040%=      5-min Rain = 0
KBR1 221653Z 22006KT 07/M05 A3012 RMK A01 T00741051  RH  041%=      5-min Rain = 0
KBR1 221654Z 22006KT 08/M05 A3012 RMK A01 T00761048  RH  041%=      5-min Rain = 0
KBR1 221655Z 22005KT 08/M05 A3012 RMK A01 T00781047  RH  041%=      5-min Rain = 0
KBR1 221656Z 23007KT 08/M05 A3012 RMK A01 T00781049  RH  040%=      5-min Rain = 0
KBR1 221657Z 22008KT 08/M05 A3012 RMK A01 T00771050  RH  040%=      5-min Rain = 0
KBR1 221658Z 22007KT 08/M05 A3012 RMK A01 T00771049  RH  041%=      5-min Rain = 0
KBR1 221659Z 21006KT 08/M05 A3012 RMK A01 T00771048  RH  041%=      5-min Rain = 0
KBR1 221700Z 20005KT 08/M04 A3012 RMK A01 T00791044  RH  041%=      5-min Rain = 0
KBR1 221701Z 21008KT 08/M04 A3012 RMK A01 T00821041  RH  041%=      5-min Rain = 0
KBR1 221702Z 21008KT 08/M04 A3012 RMK A01 T00831043  RH  041%=      5-min Rain = 0
KBR1 221703Z 22007KT 08/M05 A3012 RMK A01 T00831045  RH  040%=      5-min Rain = 0
KBR1 221704Z 20008KT 08/M04 A3012 RMK A01 T00831044  RH  040%=      5-min Rain = 0
KBR1 221705Z 20006KT 08/M05 A3012 RMK A01 T00831046  RH  040%=      5-min Rain = 0
KBR1 221706Z 21006KT 08/M04 A3012 RMK A01 T00821044  RH  040%=      5-min Rain = 0
KBR1 221707Z 21008KT 08/M05 A3012 RMK A01 T00831045  RH  040%=      5-min Rain = 0
KBR1 221708Z 20006KT 08/M05 A3012 RMK A01 T00801049  RH  040%=      5-min Rain = 0
KBR1 221709Z 21008KT 08/M05 A3012 RMK A01 T00801046  RH  040%=      5-min Rain = 0
KBR1 221710Z 22008KT 08/M05 A3012 RMK A01 T00821048  RH  040%=      5-min Rain = 0
KBR1 221711Z 21007KT 08/M05 A3012 RMK A01 T00831046  RH  040%=      5-min Rain = 0
KBR1 221712Z 22009KT 08/M05 A3012 RMK A01 T00841049  RH  039%=      5-min Rain = 0
KBR1 221713Z 21008KT 08/M05 A3012 RMK A01 T00841049  RH  039%=      5-min Rain = 0
KBR1 221714Z 22006KT 08/M05 A3012 RMK A01 T00841050  RH  038%=      5-min Rain = 0
KBR1 221715Z 23006KT 09/M05 A3012 RMK A01 T00851050  RH  038%=      5-min Rain = 0
KBR1 221716Z 21006KT 09/M05 A3012 RMK A01 T00861049  RH  038%=      5-min Rain = 0
KBR1 221717Z 22006KT 09/M05 A3012 RMK A01 T00871048  RH  038%=      5-min Rain = 0
KBR1 221718Z 23008KT 09/M05 A3012 RMK A01 T00891048  RH  038%=      5-min Rain = 0
KBR1 221719Z 23007KT 09/M05 A3012 RMK A01 T00901050  RH  037%=      5-min Rain = 0
KBR1 221720Z 23007KT 09/M05 A3012 RMK A01 T00911048  RH  037%=      5-min Rain = 0
KBR1 221721Z 24006KT 09/M05 A3012 RMK A01 T00931048  RH  036%=      5-min Rain = 0
KBR1 221722Z 22007KT 09/M05 A3012 RMK A01 T00931050  RH  036%=      5-min Rain = 0
KBR1 221723Z 23007KT 09/M05 A3012 RMK A01 T00941047  RH  037%=      5-min Rain = 0
KBR1 221724Z 23008KT 10/M05 A3012 RMK A01 T00961048  RH  036%=      5-min Rain = 0
KBR1 221725Z 23008KT 10/M05 A3012 RMK A01 T00971049  RH  035%=      5-min Rain = 0
KBR1 221726Z 23008KT 10/M05 A3012 RMK A01 T00981047  RH  036%=      5-min Rain = 0
KBR1 221727Z 24008KT 10/M05 A3012 RMK A01 T00981050  RH  035%=      5-min Rain = 0
KBR1 221728Z 24007KT 10/M05 A3012 RMK A01 T00981051  RH  035%=      5-min Rain = 0
KBR1 221729Z 23008KT 10/M05 A3012 RMK A01 T00971050  RH  035%=      5-min Rain = 0
KBR1 221730Z 23007KT 10/M05 A3012 RMK A01 T00971053  RH  034%=      5-min Rain = 0
KBR1 221731Z 22009KT 10/M05 A3012 RMK A01 T00981048  RH  035%=      5-min Rain = 0
KBR1 221732Z 21011KT 10/M05 A3012 RMK A01 T01021050  RH  034%=      5-min Rain = 0
KBR1 221733Z 23009KT 10/M05 A3012 RMK A01 T01021050  RH  034%=      5-min Rain = 0
KBR1 221734Z 23006KT 10/M05 A3012 RMK A01 T01031052  RH  033%=      5-min Rain = 0
KBR1 221735Z 23008KT 10/M05 A3012 RMK A01 T01021051  RH  034%=      5-min Rain = 0
KBR1 221736Z 24010KT 10/M05 A3012 RMK A01 T01041051  RH  033%=      5-min Rain = 0
KBR1 221737Z 22008KT 11/M05 A3012 RMK A01 T01051053  RH  032%=      5-min Rain = 0
KBR1 221738Z 25008KT 11/M05 A3012 RMK A01 T01051054  RH  032%=      5-min Rain = 0
KBR1 221739Z 25008KT 11/M06 A3012 RMK A01 T01051057  RH  031%=      5-min Rain = 0
KBR1 221740Z 23008KT 11/M06 A3012 RMK A01 T01051055  RH  032%=      5-min Rain = 0
KBR1 221741Z 23006KT 11/M05 A3012 RMK A01 T01051054  RH  032%=      5-min Rain = 0
KBR1 221742Z 23007KT 11/M05 A3012 RMK A01 T01061051  RH  033%=      5-min Rain = 0
KBR1 221743Z 25010KT 11/M05 A3012 RMK A01 T01081050  RH  032%=      5-min Rain = 0
KBR1 221744Z 24009KT 11/M05 A3012 RMK A01 T01101052  RH  032%=      5-min Rain = 0
KBR1 221745Z 24007KT 11/M06 A3012 RMK A01 T01071056  RH  031%=      5-min Rain = 0
KBR1 221746Z 22007KT 11/M05 A3012 RMK A01 T01061054  RH  032%=      5-min Rain = 0
KBR1 221747Z 23009KT 11/M05 A3012 RMK A01 T01061054  RH  032%=      5-min Rain = 0
KBR1 221748Z 23010KT 11/M06 A3012 RMK A01 T01071056  RH  031%=      5-min Rain = 0
KBR1 221749Z 24009KT 11/M06 A3012 RMK A01 T01071057  RH  031%=      5-min Rain = 0
KBR1 221750Z 24006KT 11/M06 A3012 RMK A01 T01081057  RH  031%=      5-min Rain = 0
KBR1 221751Z 25005KT 11/M06 A3011 RMK A01 T01071055  RH  031%=      5-min Rain = 0
KBR1 221752Z 25007KT 11/M05 A3011 RMK A01 T01101050  RH  032%=      5-min Rain = 0
KBR1 221753Z 25009KT 11/M05 A3011 RMK A01 T01131053  RH  031%=      5-min Rain = 0
KBR1 221754Z 26006KT 11/M06 A3011 RMK A01 T01131056  RH  030%=      5-min Rain = 0
KBR1 221755Z 25005KT 11/M05 A3011 RMK A01 T01131054  RH  031%=      5-min Rain = 0
KBR1 221756Z 24009KT 12/M05 A3011 RMK A01 T01161049  RH  031%=      5-min Rain = 0
KBR1 221757Z 24010KT 12/M06 A3011 RMK A01 T01161056  RH  030%=      5-min Rain = 0
KBR1 221758Z 23007KT 11/M06 A3011 RMK A01 T01131058  RH  030%=      5-min Rain = 0
KBR1 221759Z 23007KT 11/M06 A3011 RMK A01 T01131055  RH  030%=      5-min Rain = 0
KBR1 221800Z 26008KT 12/M06 A3011 RMK A01 T01151056  RH  030%=      5-min Rain = 0
KBR1 221801Z 27006KT 12/M06 A3011 RMK A01 T01171062  RH  028%=      5-min Rain = 0
KBR1 221802Z 26006KT 12/M06 A3011 RMK A01 T01171062  RH  028%=      5-min Rain = 0
KBR1 221803Z 24010KT 12/M06 A3011 RMK A01 T01181057  RH  029%=      5-min Rain = 0
KBR1 221804Z 25009KT 12/M06 A3011 RMK A01 T01181058  RH  029%=      5-min Rain = 0
KBR1 221805Z 23007KT 12/M06 A3011 RMK A01 T01171057  RH  029%=      5-min Rain = 0
KBR1 221806Z 24007KT 12/M06 A3011 RMK A01 T01171060  RH  028%=      5-min Rain = 0
KBR1 221807Z 24006KT 12/M06 A3011 RMK A01 T01161063  RH  028%=      5-min Rain = 0
KBR1 221808Z 23006KT 12/M06 A3011 RMK A01 T01151060  RH  029%=      5-min Rain = 0
KBR1 221809Z 23006KT 12/M06 A3011 RMK A01 T01161061  RH  028%=      5-min Rain = 0
KBR1 221810Z 22005KT 12/M06 A3011 RMK A01 T01161064  RH  028%=      5-min Rain = 0
KBR1 221811Z 25002KT 12/M06 A3011 RMK A01 T01161062  RH  028%=      5-min Rain = 0
KBR1 221812Z 25003KT 12/M06 A3011 RMK A01 T01181060  RH  028%=      5-min Rain = 0
KBR1 221813Z 25006KT 12/M06 A3011 RMK A01 T01201061  RH  028%=      5-min Rain = 0
KBR1 221814Z 24007KT 12/M06 A301 RMK A01 T01231059  RH  028%=      5-min Rain = 0
KBR1 221815Z 25006KT 13/M06 A301 RMK A01 T01251063  RH  026%=      5-min Rain = 0
KBR1 221816Z 24005KT 12/M06 A301 RMK A01 T01221064  RH  027%=      5-min Rain = 0
KBR1 221817Z 24004KT 12/M06 A301 RMK A01 T01221063  RH  027%=      5-min Rain = 0
KBR1 221818Z 25006KT 12/M06 A301 RMK A01 T01231060  RH  027%=      5-min Rain = 0
KBR1 221819Z 24008KT 13/M06 A301 RMK A01 T01251064  RH  026%=      5-min Rain = 0
KBR1 221820Z 23007KT 13/M06 A301 RMK A01 T01271064  RH  026%=      5-min Rain = 0
KBR1 221821Z 24006KT 13/M06 A301 RMK A01 T01271062  RH  026%=      5-min Rain = 0
KBR1 221822Z 25007KT 13/M06 A301 RMK A01 T01291061  RH  026%=      5-min Rain = 0
KBR1 221823Z 25005KT 13/M07 A301 RMK A01 T01291067  RH  025%=      5-min Rain = 0
KBR1 221824Z 22005KT 13/M07 A301 RMK A01 T01281065  RH  026%=      5-min Rain = 0
KBR1 221825Z 24007KT 13/M06 A301 RMK A01 T01291063  RH  026%=      5-min Rain = 0
KBR1 221826Z 25009KT 13/M07 A301 RMK A01 T01321073  RH  023%=      5-min Rain = 0
KBR1 221827Z 26009KT 13/M07 A301 RMK A01 T01311073  RH  023%=      5-min Rain = 0
KBR1 221828Z 26006KT 13/M07 A301 RMK A01 T01291074  RH  024%=      5-min Rain = 0
KBR1 221829Z 26005KT 13/M07 A301 RMK A01 T01281069  RH  025%=      5-min Rain = 0
KBR1 221830Z 25009KT 13/M07 A301 RMK A01 T01311069  RH  024%=      5-min Rain = 0
KBR1 221831Z 24008KT 13/M07 A301 RMK A01 T01341068  RH  024%=      5-min Rain = 0
KBR1 221832Z 25007KT 14/M07 A301 RMK A01 T01361068  RH  024%=      5-min Rain = 0
KBR1 221833Z 23006KT 14/M07 A301 RMK A01 T01361069  RH  023%=      5-min Rain = 0
KBR1 221834Z 23005KT 14/M08 A301 RMK A01 T01361076  RH  022%=      5-min Rain = 0
KBR1 221835Z 23005KT 13/M08 A301 RMK A01 T01341077  RH  022%=      5-min Rain = 0
KBR1 221836Z 23006KT 13/M08 A301 RMK A01 T01321079  RH  022%=      5-min Rain = 0
KBR1 221837Z 26007KT 13/M07 A301 RMK A01 T01331073  RH  023%=      5-min Rain = 0
KBR1 221838Z 26006KT 14/M07 A301 RMK A01 T01361071  RH  023%=      5-min Rain = 0
KBR1 221839Z 26008KT 14/M07 A301 RMK A01 T01371072  RH  023%=      5-min Rain = 0
KBR1 221840Z 26005KT 13/M08 A301 RMK A01 T01341075  RH  023%=      5-min Rain = 0
KBR1 221841Z 24006KT 13/M08 A301 RMK A01 T01321075  RH  023%=      5-min Rain = 0
KBR1 221842Z 24005KT 13/M08 A301 RMK A01 T01321076  RH  023%=      5-min Rain = 0
KBR1 221843Z 23006KT 13/M08 A301 RMK A01 T01321075  RH  023%=      5-min Rain = 0
KBR1 221844Z 21005KT 13/M08 A301 RMK A01 T01321076  RH  023%=      5-min Rain = 0
KBR1 221845Z 21006KT 13/M08 A301 RMK A01 T01321075  RH  023%=      5-min Rain = 0
KBR1 221846Z 25008KT 13/M08 A301 RMK A01 T01331078  RH  022%=      5-min Rain = 0
KBR1 221847Z 26006KT 14/M08 A301 RMK A01 T01351076  RH  022%=      5-min Rain = 0
KBR1 221848Z 28004KT 14/M08 A301 RMK A01 T01361078  RH  022%=      5-min Rain = 0
KBR1 221849Z 28002KT 14/M08 A301 RMK A01 T01351076  RH  022%=      5-min Rain = 0
KBR1 221850Z 29003KT 14/M08 A301 RMK A01 T01361076  RH  022%=      5-min Rain = 0
KBR1 221851Z 25004KT 14/M08 A301 RMK A01 T01371078  RH  022%=      5-min Rain = 0
KBR1 221852Z 23004KT 14/M07 A3009 RMK A01 T01381071  RH  023%=      5-min Rain = 0
KBR1 221853Z 24006KT 14/M07 A3009 RMK A01 T01411068  RH  023%=      5-min Rain = 0
KBR1 221854Z 23004KT 14/M08 A3009 RMK A01 T01421075  RH  021%=      5-min Rain = 0
KBR1 221855Z 23003KT 14/M08 A3009 RMK A01 T01391078  RH  021%=      5-min Rain = 0
KBR1 221856Z 28005KT 14/M07 A3009 RMK A01 T01401072  RH  022%=      5-min Rain = 0
KBR1 221857Z 31005KT 14/M08 A3009 RMK A01 T01421075  RH  021%=      5-min Rain = 0
KBR1 221858Z 32005KT 14/M08 A3009 RMK A01 T01401076  RH  022%=      5-min Rain = 0
KBR1 221859Z 32004KT 14/M08 A3009 RMK A01 T01401075  RH  022%=      5-min Rain = 0
KBR1 221900Z 34002KT 14/M07 A3009 RMK A01 T01391074  RH  022%=      5-min Rain = 0
KBR1 221901Z 34004KT 14/M07 A3009 RMK A01 T01401073  RH  022%=      5-min Rain = 0
KBR1 221902Z 28005KT 14/M08 A3009 RMK A01 T01411076  RH  022%=      5-min Rain = 0
KBR1 221903Z 27006KT 14/M08 A3009 RMK A01 T01401080  RH  021%=      5-min Rain = 0
KBR1 221904Z 27004KT 14/M08 A3009 RMK A01 T01401076  RH  022%=      5-min Rain = 0
KBR1 221905Z 29005KT 14/M08 A3009 RMK A01 T01411075  RH  022%=      5-min Rain = 0
KBR1 221906Z 29003KT 14/M07 A3009 RMK A01 T01431074  RH  022%=      5-min Rain = 0
KBR1 221907Z 32003KT 14/M08 A3009 RMK A01 T01431079  RH  021%=      5-min Rain = 0
KBR1 221908Z 32003KT 14/M08 A3009 RMK A01 T01421078  RH  021%=      5-min Rain = 0
KBR1 221909Z 31004KT 14/M07 A3009 RMK A01 T01421073  RH  022%=      5-min Rain = 0
KBR1 221910Z 33002KT 14/M07 A3009 RMK A01 T01421072  RH  022%=      5-min Rain = 0
KBR1 221911Z 01001KT 14/M08 A3009 RMK A01 T01431075  RH  021%=      5-min Rain = 0
KBR1 221912Z 33004KT 15/M07 A3009 RMK A01 T01451072  RH  022%=      5-min Rain = 0
KBR1 221913Z 33003KT 15/M07 A3009 RMK A01 T01451071  RH  022%=      5-min Rain = 0
KBR1 221914Z 26005KT 15/M07 A3009 RMK A01 T01461070  RH  022%=      5-min Rain = 0
KBR1 221915Z 26008KT 15/M08 A3009 RMK A01 T01471076  RH  021%=      5-min Rain = 0
KBR1 221916Z 26010KT 15/M08 A3009 RMK A01 T01491076  RH  021%=      5-min Rain = 0
KBR1 221917Z 26009KT 15/M08 A3009 RMK A01 T01511076  RH  020%=      5-min Rain = 0
KBR1 221918Z 27009KT 15/M08 A3009 RMK A01 T01501077  RH  020%=      5-min Rain = 0
KBR1 221919Z 28010KT 15/M07 A3009 RMK A01 T01511073  RH  021%=      5-min Rain = 0
KBR1 221920Z 28008KT 15/M08 A3009 RMK A01 T01511075  RH  020%=      5-min Rain = 0
KBR1 221921Z 29008KT 15/M07 A3009 RMK A01 T01511073  RH  021%=      5-min Rain = 0
KBR1 221922Z 30007KT 15/M07 A3009 RMK A01 T01521074  RH  020%=      5-min Rain = 0
KBR1 221923Z 30009KT 15/M08 A3009 RMK A01 T01501075  RH  020%=      5-min Rain = 0
KBR1 221924Z 31008KT 15/M07 A3009 RMK A01 T01491074  RH  021%=      5-min Rain = 0
KBR1 221925Z 29008KT 15/M07 A3009 RMK A01 T01521070  RH  021%=      5-min Rain = 0
KBR1 221926Z 29007KT 15/M07 A3009 RMK A01 T01541074  RH  020%=      5-min Rain = 0
KBR1 221927Z 27007KT 15/M08 A3009 RMK A01 T01511078  RH  020%=      5-min Rain = 0
KBR1 221928Z 26008KT 15/M07 A3009 RMK A01 T01521071  RH  021%=      5-min Rain = 0
KBR1 221929Z 30009KT 15/M07 A3009 RMK A01 T01541069  RH  021%=      5-min Rain = 0
KBR1 221930Z 29008KT 16/M07 A3009 RMK A01 T01561073  RH  020%=      5-min Rain = 0
KBR1 221931Z 31005KT 16/M07 A3009 RMK A01 T01551073  RH  020%=      5-min Rain = 0
KBR1 221932Z 35005KT 16/M07 A3009 RMK A01 T01561071  RH  020%=      5-min Rain = 0
KBR1 221933Z 32004KT 16/M08 A3009 RMK A01 T01561078  RH  019%=      5-min Rain = 0
KBR1 221934Z 29007KT 16/M07 A3009 RMK A01 T01551072  RH  020%=      5-min Rain = 0
KBR1 221935Z 31006KT 16/M07 A3009 RMK A01 T01561074  RH  020%=      5-min Rain = 0
KBR1 221936Z 33004KT 16/M07 A3009 RMK A01 T01551074  RH  020%=      5-min Rain = 0
KBR1 221937Z 33005KT 16/M07 A3009 RMK A01 T01551073  RH  020%=      5-min Rain = 0
KBR1 221938Z 33008KT 16/M07 A3009 RMK A01 T01561070  RH  020%=      5-min Rain = 0
KBR1 221939Z 33004KT 16/M08 A3009 RMK A01 T01561075  RH  020%=      5-min Rain = 0
KBR1 221940Z 30005KT 16/M07 A3009 RMK A01 T01551074  RH  020%=      5-min Rain = 0
KBR1 221941Z 30005KT 16/M07 A3009 RMK A01 T01561070  RH  020%=      5-min Rain = 0
KBR1 221942Z 31006KT 16/M08 A3009 RMK A01 T01571076  RH  019%=      5-min Rain = 0
KBR1 221943Z 30008KT 16/M08 A3009 RMK A01 T01551076  RH  020%=      5-min Rain = 0
KBR1 221944Z 30008KT 16/M08 A3009 RMK A01 T01551079  RH  019%=      5-min Rain = 0
KBR1 221945Z 31007KT 16/M08 A3009 RMK A01 T01561078  RH  019%=      5-min Rain = 0
KBR1 221946Z 32005KT 16/M08 A3009 RMK A01 T01561077  RH  019%=      5-min Rain = 0
KBR1 221947Z 28004KT 16/M08 A3009 RMK A01 T01571080  RH  019%=      5-min Rain = 0
KBR1 221948Z 30003KT 16/M08 A3009 RMK A01 T01561081  RH  019%=      5-min Rain = 0
KBR1 221949Z 31004KT 16/M08 A3009 RMK A01 T01571076  RH  019%=      5-min Rain = 0
KBR1 221950Z 31005KT 16/M08 A3009 RMK A01 T01581082  RH  018%=      5-min Rain = 0
KBR1 221951Z 32008KT 16/M08 A3009 RMK A01 T01591077  RH  019%=      5-min Rain = 0
KBR1 221952Z 32012KT 16/M07 A3009 RMK A01 T01631068  RH  020%=      5-min Rain = 0
KBR1 221953Z 33011KT 17/M07 A3009 RMK A01 T01651074  RH  019%=      5-min Rain = 0
KBR1 221954Z 31009KT 16/M08 A3009 RMK A01 T01621076  RH  019%=      5-min Rain = 0
KBR1 221955Z 30010KT 16/M07 A3009 RMK A01 T01631072  RH  019%=      5-min Rain = 0
KBR1 221956Z 30011KT 16/M08 A3009 RMK A01 T01641075  RH  019%=      5-min Rain = 0
KBR1 221957Z 29009KT 16/M08 A3009 RMK A01 T01621077  RH  019%=      5-min Rain = 0
KBR1 221958Z 31009KT 16/M08 A3009 RMK A01 T01611077  RH  019%=      5-min Rain = 0
KBR1 221959Z 33008KT 16/M08 A3009 RMK A01 T01601079  RH  019%=      5-min Rain = 0
KBR1 222000Z 33006KT 16/M08 A3009 RMK A01 T01591080  RH  019%=      5-min Rain = 0
KBR1 222001Z 33007KT 16/M08 A3008 RMK A01 T01601078  RH  019%=      5-min Rain = 0
KBR1 222002Z 35006KT 16/M08 A3008 RMK A01 T01611082  RH  018%=      5-min Rain = 0
KBR1 222003Z 01006KT 16/M08 A3008 RMK A01 T01601082  RH  018%=      5-min Rain = 0
KBR1 222004Z 33008KT 16/M07 A3008 RMK A01 T01611074  RH  019%=      5-min Rain = 0
KBR1 222005Z 34007KT 17/M07 A3008 RMK A01 T01651071  RH  019%=      5-min Rain = 0
KBR1 222006Z 35004KT 17/M07 A3008 RMK A01 T01651072  RH  019%=      5-min Rain = 0
KBR1 222007Z 35008KT 17/M08 A3008 RMK A01 T01661075  RH  019%=      5-min Rain = 0
KBR1 222008Z 35008KT 16/M08 A3008 RMK A01 T01621080  RH  018%=      5-min Rain = 0
KBR1 222009Z 33006KT 16/M08 A3008 RMK A01 T01601079  RH  019%=      5-min Rain = 0
KBR1 222010Z 34005KT 16/M08 A3008 RMK A01 T01591081  RH  018%=      5-min Rain = 0
KBR1 222011Z 00010KT 16/M08 A3008 RMK A01 T01601077  RH  019%=      5-min Rain = 0
KBR1 222012Z 34011KT 16/M08 A3008 RMK A01 T01601077  RH  019%=      5-min Rain = 0
KBR1 222013Z 33013KT 16/M07 A3008 RMK A01 T01621072  RH  019%=      5-min Rain = 0
KBR1 222014Z 32010KT 16/M08 A3008 RMK A01 T01631075  RH  019%=      5-min Rain = 0
KBR1 222015Z 32009KT 16/M08 A3008 RMK A01 T01611076  RH  019%=      5-min Rain = 0
KBR1 222016Z 33009KT 16/M08 A3008 RMK A01 T01601077  RH  019%=      5-min Rain = 0
KBR1 222017Z 34005KT 16/M08 A3008 RMK A01 T01601075  RH  019%=      5-min Rain = 0
KBR1 222018Z 34008KT 16/M07 A3008 RMK A01 T01611074  RH  019%=      5-min Rain = 0
KBR1 222019Z 33010KT 16/M07 A3008 RMK A01 T01641072  RH  019%=      5-min Rain = 0
KBR1 222020Z 34008KT 16/M08 A3008 RMK A01 T01631077  RH  019%=      5-min Rain = 0
KBR1 222021Z 34008KT 16/M08 A3008 RMK A01 T01601079  RH  019%=      5-min Rain = 0
KBR1 222022Z 34005KT 16/M08 A3008 RMK A01 T01591077  RH  019%=      5-min Rain = 0
KBR1 222023Z 35005KT 16/M08 A3008 RMK A01 T01601075  RH  019%=      5-min Rain = 0
KBR1 222024Z 01006KT 16/M07 A3008 RMK A01 T01631071  RH  019%=      5-min Rain = 0
KBR1 222025Z 02006KT 16/M08 A3008 RMK A01 T01641075  RH  019%=      5-min Rain = 0
KBR1 222026Z 02004KT 16/M08 A3008 RMK A01 T01641075  RH  019%=      5-min Rain = 0
KBR1 222027Z 36004KT 16/M08 A3008 RMK A01 T01641075  RH  019%=      5-min Rain = 0
KBR1 222028Z 35005KT 17/M07 A3008 RMK A01 T01651069  RH  019%=      5-min Rain = 0
KBR1 222029Z 31003KT 17/M07 A3008 RMK A01 T01681070  RH  019%=      5-min Rain = 0
KBR1 222030Z 33004KT 17/M07 A3008 RMK A01 T01681072  RH  019%=      5-min Rain = 0
KBR1 222031Z 01008KT 17/M07 A3008 RMK A01 T01691070  RH  019%=      5-min Rain = 0
KBR1 222032Z 02008KT 17/M08 A3008 RMK A01 T01681077  RH  018%=      5-min Rain = 0
KBR1 222033Z 02006KT 17/M08 A3008 RMK A01 T01661077  RH  018%=      5-min Rain = 0
KBR1 222034Z 02007KT 17/M08 A3008 RMK A01 T01651083  RH  017%=      5-min Rain = 0
KBR1 222035Z 01008KT 16/M08 A3008 RMK A01 T01631083  RH  018%=      5-min Rain = 0
KBR1 222036Z 35007KT 16/M08 A3008 RMK A01 T01621082  RH  018%=      5-min Rain = 0
KBR1 222037Z 02009KT 16/M08 A3008 RMK A01 T01611078  RH  019%=      5-min Rain = 0
KBR1 222038Z 04010KT 17/M07 A3008 RMK A01 T01651073  RH  019%=      5-min Rain = 0
KBR1 222039Z 04009KT 17/M08 A3008 RMK A01 T01671075  RH  018%=      5-min Rain = 0
KBR1 222040Z 04007KT 17/M08 A3008 RMK A01 T01671076  RH  018%=      5-min Rain = 0
KBR1 222041Z 05006KT 16/M08 A3008 RMK A01 T01641080  RH  018%=      5-min Rain = 0
KBR1 222042Z 05007KT 16/M08 A3007 RMK A01 T01621080  RH  018%=      5-min Rain = 0
KBR1 222043Z 03005KT 16/M08 A3007 RMK A01 T01621079  RH  018%=      5-min Rain = 0
KBR1 222044Z 03004KT 16/M08 A3007 RMK A01 T01621079  RH  018%=      5-min Rain = 0
KBR1 222045Z 04003KT 16/M08 A3007 RMK A01 T01621077  RH  019%=      5-min Rain = 0
KBR1 222046Z 02002KT 16/M08 A3007 RMK A01 T01641075  RH  019%=      5-min Rain = 0
KBR1 222047Z 01003KT 17/M08 A3007 RMK A01 T01661079  RH  018%=      5-min Rain = 0
KBR1 222048Z 03002KT 17/M08 A3007 RMK A01 T01661081  RH  018%=      5-min Rain = 0
KBR1 222049Z 36002KT 17/M08 A3007 RMK A01 T01651081  RH  018%=      5-min Rain = 0
KBR1 222050Z 35005KT 17/M08 A3007 RMK A01 T01651079  RH  018%=      5-min Rain = 0
KBR1 222051Z 36006KT 17/M08 A3007 RMK A01 T01661079  RH  018%=      5-min Rain = 0
KBR1 222052Z 34007KT 17/M08 A3007 RMK A01 T01671077  RH  018%=      5-min Rain = 0
KBR1 222053Z 34007KT 17/M09 A3007 RMK A01 T01671085  RH  017%=      5-min Rain = 0
KBR1 222054Z 31004KT 16/M09 A3007 RMK A01 T01641087  RH  017%=      5-min Rain = 0
KBR1 222055Z 31004KT 16/M08 A3007 RMK A01 T01631083  RH  018%=      5-min Rain = 0
KBR1 222056Z 32004KT 16/M08 A3007 RMK A01 T01641084  RH  017%=      5-min Rain = 0
KBR1 222057Z 35003KT 16/M09 A3008 RMK A01 T01641086  RH  017%=      5-min Rain = 0
KBR1 222058Z 02003KT 16/M09 A3008 RMK A01 T01641085  RH  017%=      5-min Rain = 0
KBR1 222059Z 02005KT 16/M08 A3008 RMK A01 T01641083  RH  017%=      5-min Rain = 0
KBR1 222100Z 03005KT 17/M08 A3008 RMK A01 T01661081  RH  018%=      5-min Rain = 0
KBR1 222101Z 01005KT 17/M08 A3008 RMK A01 T01681077  RH  018%=      5-min Rain = 0
KBR1 222102Z 04006KT 17/M08 A3008 RMK A01 T01691081  RH  017%=      5-min Rain = 0
KBR1 222103Z 03004KT 17/M09 A3008 RMK A01 T01681087  RH  017%=      5-min Rain = 0
KBR1 222104Z 06003KT 17/M09 A3008 RMK A01 T01661089  RH  017%=      5-min Rain = 0
KBR1 222105Z 07003KT 17/M08 A3008 RMK A01 T01661083  RH  017%=      5-min Rain = 0
KBR1 222106Z 36004KT 17/M09 A3008 RMK A01 T01671086  RH  017%=      5-min Rain = 0
KBR1 222107Z 03008KT 17/M09 A3008 RMK A01 T01671085  RH  017%=      5-min Rain = 0
KBR1 222108Z 03009KT 17/M08 A3008 RMK A01 T01691084  RH  017%=      5-min Rain = 0
KBR1 222109Z 02009KT 17/M09 A3008 RMK A01 T01701086  RH  016%=      5-min Rain = 0
KBR1 222110Z 01010KT 17/M09 A3008 RMK A01 T01701091  RH  016%=      5-min Rain = 0
KBR1 222111Z 35009KT 17/M09 A3008 RMK A01 T01691089  RH  016%=      5-min Rain = 0
KBR1 222112Z 35007KT 17/M09 A3008 RMK A01 T01691089  RH  016%=      5-min Rain = 0
KBR1 222113Z 01007KT 17/M09 A3008 RMK A01 T01691090  RH  016%=      5-min Rain = 0
KBR1 222114Z 01006KT 17/M09 A3008 RMK A01 T01681093  RH  016%=      5-min Rain = 0
KBR1 222115Z 35004KT 17/M09 A3008 RMK A01 T01671093  RH  016%=      5-min Rain = 0
KBR1 222116Z 01005KT 17/M09 A3008 RMK A01 T01671094  RH  016%=      5-min Rain = 0
KBR1 222117Z 01004KT 17/M09 A3008 RMK A01 T01671093  RH  016%=      5-min Rain = 0
KBR1 222118Z 01006KT 17/M09 A3007 RMK A01 T01671089  RH  016%=      5-min Rain = 0
KBR1 222119Z 03006KT 17/M08 A3007 RMK A01 T01691082  RH  017%=      5-min Rain = 0
KBR1 222120Z 01004KT 17/M08 A3007 RMK A01 T01711082  RH  017%=      5-min Rain = 0
KBR1 222121Z 35005KT 17/M08 A3007 RMK A01 T01721083  RH  017%=      5-min Rain = 0
KBR1 222122Z 35003KT 17/M08 A3007 RMK A01 T01721084  RH  017%=      5-min Rain = 0
KBR1 222123Z 06004KT 17/M09 A3007 RMK A01 T01711085  RH  017%=      5-min Rain = 0
KBR1 222124Z 06005KT 17/M08 A3007 RMK A01 T01711083  RH  017%=      5-min Rain = 0
KBR1 222125Z 05007KT 17/M07 A3007 RMK A01 T01721074  RH  018%=      5-min Rain = 0
KBR1 222126Z 06007KT 17/M07 A3007 RMK A01 T01721073  RH  018%=      5-min Rain = 0
KBR1 222127Z 06008KT 17/M07 A3007 RMK A01 T01721074  RH  018%=      5-min Rain = 0
KBR1 222128Z 06008KT 17/M08 A3007 RMK A01 T01701075  RH  018%=      5-min Rain = 0
KBR1 222129Z 07009KT 17/M08 A3007 RMK A01 T01701075  RH  018%=      5-min Rain = 0
KBR1 222130Z 07009KT 17/M08 A3007 RMK A01 T01701075  RH  018%=      5-min Rain = 0
KBR1 222131Z 07008KT 17/M08 A3007 RMK A01 T01701076  RH  018%=      5-min Rain = 0
KBR1 222132Z 08006KT 17/M08 A3007 RMK A01 T01691078  RH  018%=      5-min Rain = 0
KBR1 222133Z 06005KT 17/M08 A3007 RMK A01 T01691077  RH  018%=      5-min Rain = 0
KBR1 222134Z 08007KT 17/M08 A3007 RMK A01 T01691080  RH  017%=      5-min Rain = 0
KBR1 222135Z 06006KT 17/M08 A3007 RMK A01 T01671081  RH  017%=      5-min Rain = 0
KBR1 222136Z 06008KT 17/M07 A3007 RMK A01 T01681074  RH  018%=      5-min Rain = 0
KBR1 222137Z 06006KT 17/M08 A3007 RMK A01 T01691075  RH  018%=      5-min Rain = 0
KBR1 222138Z 07005KT 17/M07 A3007 RMK A01 T01711072  RH  018%=      5-min Rain = 0
KBR1 222139Z 07008KT 17/M08 A3007 RMK A01 T01721076  RH  018%=      5-min Rain = 0
KBR1 222140Z 06008KT 17/M08 A3007 RMK A01 T01711079  RH  017%=      5-min Rain = 0
KBR1 222141Z 07006KT 17/M08 A3007 RMK A01 T01701079  RH  017%=      5-min Rain = 0
KBR1 222142Z 08006KT 17/M08 A3007 RMK A01 T01691080  RH  017%=      5-min Rain = 0
KBR1 222143Z 07003KT 17/M08 A3007 RMK A01 T01691083  RH  017%=      5-min Rain = 0
KBR1 222144Z 09001KT 17/M08 A3007 RMK A01 T01681082  RH  017%=      5-min Rain = 0
KBR1 222145Z 03002KT 17/M08 A3007 RMK A01 T01681082  RH  017%=      5-min Rain = 0
KBR1 222146Z 05003KT 17/M08 A3007 RMK A01 T01691079  RH  018%=      5-min Rain = 0
KBR1 222147Z 08005G10KT 17/M08 A3008 RMK A01 T01701077  RH  018%=      5-min Rain = 0
KBR1 222148Z 08007KT 17/M08 A3008 RMK A01 T01701078  RH  018%=      5-min Rain = 0
KBR1 222149Z 08006KT 17/M08 A3008 RMK A01 T01681079  RH  018%=      5-min Rain = 0
KBR1 222150Z 09006KT 17/M07 A3008 RMK A01 T01681074  RH  018%=      5-min Rain = 0
KBR1 222151Z 09006KT 17/M07 A3008 RMK A01 T01701074  RH  018%=      5-min Rain = 0
KBR1 222152Z 09005KT 17/M08 A3008 RMK A01 T01701078  RH  018%=      5-min Rain = 0
KBR1 222153Z 10006KT 17/M08 A3008 RMK A01 T01691079  RH  018%=      5-min Rain = 0
KBR1 222154Z 10002KT 17/M08 A3008 RMK A01 T01681081  RH  017%=      5-min Rain = 0
KBR1 222155Z 11002KT 17/M08 A3008 RMK A01 T01671081  RH  017%=      5-min Rain = 0
KBR1 222156Z 12003KT 17/M08 A3008 RMK A01 T01681079  RH  018%=      5-min Rain = 0
KBR1 222157Z 08005KT 17/M08 A3008 RMK A01 T01701076  RH  018%=      5-min Rain = 0
KBR1 222158Z 07004KT 17/M08 A3008 RMK A01 T01701081  RH  017%=      5-min Rain = 0
KBR1 222159Z 06008KT 17/M08 A3008 RMK A01 T01691077  RH  018%=      5-min Rain = 0
KBR1 222200Z 05008KT 17/M08 A3008 RMK A01 T01701078  RH  018%=      5-min Rain = 0
KBR1 222201Z 05006KT 17/M08 A3008 RMK A01 T01681084  RH  017%=      5-min Rain = 0
KBR1 222202Z 05008KT 17/M08 A3008 RMK A01 T01671080  RH  018%=      5-min Rain = 0
KBR1 222203Z 04009KT 17/M08 A3008 RMK A01 T01681080  RH  018%=      5-min Rain = 0
KBR1 222204Z 04008KT 17/M08 A3008 RMK A01 T01681083  RH  017%=      5-min Rain = 0
KBR1 222205Z 05009KT 17/M08 A3008 RMK A01 T01671081  RH  017%=      5-min Rain = 0
KBR1 222206Z 07007KT 17/M08 A3008 RMK A01 T01671083  RH  017%=      5-min Rain = 0
KBR1 222207Z 08004KT 17/M09 A3008 RMK A01 T01661086  RH  017%=      5-min Rain = 0
KBR1 222208Z 09003KT 17/M08 A3008 RMK A01 T01661083  RH  017%=      5-min Rain = 0
KBR1 222209Z 08004KT 17/M08 A3008 RMK A01 T01661082  RH  017%=      5-min Rain = 0
KBR1 222210Z 11002KT 17/M09 A3008 RMK A01 T01671086  RH  017%=      5-min Rain = 0
KBR1 222211Z 11002KT 17/M08 A3008 RMK A01 T01671084  RH  017%=      5-min Rain = 0
KBR1 222212Z 06007G12KT 17/M08 A3008 RMK A01 T01691080  RH  017%=      5-min Rain = 0
KBR1 222213Z 08009KT 17/M08 A3008 RMK A01 T01711076  RH  018%=      5-min Rain = 0
KBR1 222214Z 07007KT 17/M07 A3008 RMK A01 T01721071  RH  018%=      5-min Rain = 0
KBR1 222215Z 09007KT 17/M08 A3008 RMK A01 T01721077  RH  018%=      5-min Rain = 0
KBR1 222216Z 08004KT 17/M08 A3008 RMK A01 T01691083  RH  017%=      5-min Rain = 0
KBR1 222217Z 09005KT 17/M08 A3008 RMK A01 T01671082  RH  017%=      5-min Rain = 0
KBR1 222218Z 09004KT 17/M08 A3008 RMK A01 T01671084  RH  017%=      5-min Rain = 0
KBR1 222219Z 11006KT 17/M08 A3008 RMK A01 T01671083  RH  017%=      5-min Rain = 0
KBR1 222220Z 12006KT 17/M08 A3008 RMK A01 T01671084  RH  017%=      5-min Rain = 0
KBR1 222221Z 11006KT 17/M08 A3008 RMK A01 T01671082  RH  017%=      5-min Rain = 0
KBR1 222222Z 10004KT 17/M09 A3008 RMK A01 T01671086  RH  017%=      5-min Rain = 0
KBR1 222223Z 08005KT 17/M09 A3008 RMK A01 T01671085  RH  017%=      5-min Rain = 0
KBR1 222224Z 08007KT 17/M09 A3008 RMK A01 T01681085  RH  017%=      5-min Rain = 0
KBR1 222225Z 09006KT 17/M09 A3008 RMK A01 T01681091  RH  016%=      5-min Rain = 0
KBR1 222226Z 08007KT 17/M09 A3008 RMK A01 T01661086  RH  017%=      5-min Rain = 0
KBR1 222227Z 09005KT 17/M09 A3008 RMK A01 T01661086  RH  017%=      5-min Rain = 0
KBR1 222228Z 08005KT 17/M09 A3008 RMK A01 T01651086  RH  017%=      5-min Rain = 0
KBR1 222229Z 07002KT 17/M09 A3008 RMK A01 T01661089  RH  017%=      5-min Rain = 0
KBR1 222230Z 09004KT 17/M09 A3008 RMK A01 T01661089  RH  017%=      5-min Rain = 0
KBR1 222231Z 08006KT 17/M09 A3008 RMK A01 T01671085  RH  017%=      5-min Rain = 0
KBR1 222232Z 08006KT 17/M09 A3008 RMK A01 T01681085  RH  017%=      5-min Rain = 0
KBR1 222233Z 08006KT 17/M08 A3008 RMK A01 T01681083  RH  017%=      5-min Rain = 0
KBR1 222234Z 07006KT 17/M08 A3008 RMK A01 T01701084  RH  017%=      5-min Rain = 0
KBR1 222235Z 07006KT 17/M09 A3008 RMK A01 T01711086  RH  017%=      5-min Rain = 0
KBR1 222236Z 07006KT 17/M09 A3008 RMK A01 T01701090  RH  016%=      5-min Rain = 0
KBR1 222237Z 05006KT 17/M09 A3008 RMK A01 T01691090  RH  016%=      5-min Rain = 0
KBR1 222238Z 07006KT 17/M09 A3008 RMK A01 T01681092  RH  016%=      5-min Rain = 0
KBR1 222239Z 05004KT 17/M09 A3008 RMK A01 T01671090  RH  016%=      5-min Rain = 0
KBR1 222240Z 04003KT 17/M09 A3008 RMK A01 T01681091  RH  016%=      5-min Rain = 0
KBR1 222241Z 06003KT 17/M10 A3008 RMK A01 T01681095  RH  016%=      5-min Rain = 0
KBR1 222242Z 09003KT 17/M09 A3008 RMK A01 T01681091  RH  016%=      5-min Rain = 0
KBR1 222243Z 10003KT 17/M09 A3008 RMK A01 T01671093  RH  016%=      5-min Rain = 0
KBR1 222244Z 10003KT 17/M09 A3008 RMK A01 T01681092  RH  016%=      5-min Rain = 0
KBR1 222245Z 06005KT 17/M09 A3008 RMK A01 T01691090  RH  016%=      5-min Rain = 0
KBR1 222246Z 05006KT 17/M09 A3008 RMK A01 T01691091  RH  016%=      5-min Rain = 0
KBR1 222247Z 04004KT 17/M09 A3008 RMK A01 T01691093  RH  016%=      5-min Rain = 0
KBR1 222248Z 03005KT 17/M10 A3008 RMK A01 T01691097  RH  015%=      5-min Rain = 0
KBR1 222249Z 04006KT 17/M10 A3008 RMK A01 T01681097  RH  015%=      5-min Rain = 0
KBR1 222250Z 05004KT 17/M10 A3008 RMK A01 T01671099  RH  015%=      5-min Rain = 0
KBR1 222251Z 04003KT 17/M10 A3008 RMK A01 T01661096  RH  016%=      5-min Rain = 0
KBR1 222252Z 06003KT 17/M09 A3008 RMK A01 T01671094  RH  016%=      5-min Rain = 0
KBR1 222253Z 08003KT 17/M10 A3008 RMK A01 T01681096  RH  015%=      5-min Rain = 0
KBR1 222254Z 11004KT 17/M10 A3008 RMK A01 T01681099  RH  015%=      5-min Rain = 0
KBR1 222255Z 10002KT 17/M10 A3008 RMK A01 T01671101  RH  015%=      5-min Rain = 0
KBR1 222256Z 09003KT 17/M10 A3008 RMK A01 T01671097  RH  016%=      5-min Rain = 0
KBR1 222257Z 10004KT 17/M09 A3008 RMK A01 T01671090  RH  016%=      5-min Rain = 0
KBR1 222258Z 09005KT 17/M08 A3008 RMK A01 T01681084  RH  017%=      5-min Rain = 0
KBR1 222259Z 10003KT 17/M09 A3008 RMK A01 T01691089  RH  016%=      5-min Rain = 0
KBR1 222300Z 11005KT 17/M09 A3008 RMK A01 T01671090  RH  016%=      5-min Rain = 0
KBR1 222301Z 11006KT 17/M09 A3008 RMK A01 T01671086  RH  017%=      5-min Rain = 0
KBR1 222302Z 09006KT 17/M09 A3008 RMK A01 T01671086  RH  017%=      5-min Rain = 0
KBR1 222303Z 09007KT 17/M09 A3008 RMK A01 T01671087  RH  017%=      5-min Rain = 0
KBR1 222304Z 10005KT 17/M09 A3008 RMK A01 T01661088  RH  017%=      5-min Rain = 0
KBR1 222305Z 09005KT 17/M09 A3008 RMK A01 T01661092  RH  016%=      5-min Rain = 0
KBR1 222306Z 09006KT 17/M09 A3008 RMK A01 T01651090  RH  017%=      5-min Rain = 0
KBR1 222307Z 09005KT 17/M09 A3008 RMK A01 T01651089  RH  017%=      5-min Rain = 0
KBR1 222308Z 09005KT 17/M09 A3008 RMK A01 T01651089  RH  017%=      5-min Rain = 0
KBR1 222309Z 08004KT 17/M09 A3008 RMK A01 T01651092  RH  016%=      5-min Rain = 0
KBR1 222310Z 08003KT 17/M09 A3008 RMK A01 T01651092  RH  016%=      5-min Rain = 0
KBR1 222311Z 06002KT 16/M09 A3008 RMK A01 T01641093  RH  016%=      5-min Rain = 0
KBR1 222312Z 05002KT 16/M09 A3008 RMK A01 T01641094  RH  016%=      5-min Rain = 0
KBR1 222313Z 05001KT 17/M09 A3008 RMK A01 T01651091  RH  016%=      5-min Rain = 0
KBR1 222314Z 10003KT 17/M09 A3008 RMK A01 T01661088  RH  017%=      5-min Rain = 0
KBR1 222315Z 10005KT 17/M09 A3008 RMK A01 T01671089  RH  017%=      5-min Rain = 0
KBR1 222316Z 10005KT 17/M09 A3008 RMK A01 T01661090  RH  016%=      5-min Rain = 0
KBR1 222317Z 10003KT 17/M09 A3008 RMK A01 T01661092  RH  016%=      5-min Rain = 0
KBR1 222318Z 09004KT 17/M09 A3008 RMK A01 T01651092  RH  016%=      5-min Rain = 0
KBR1 222319Z 09003KT 17/M09 A3008 RMK A01 T01651094  RH  016%=      5-min Rain = 0
KBR1 222320Z 09004KT 17/M09 A3008 RMK A01 T01651089  RH  017%=      5-min Rain = 0
KBR1 222321Z 08003KT 17/M09 A3008 RMK A01 T01651091  RH  016%=      5-min Rain = 0
KBR1 222322Z 09003KT 17/M09 A3008 RMK A01 T01651093  RH  016%=      5-min Rain = 0
KBR1 222323Z 10002KT 16/M09 A3008 RMK A01 T01641092  RH  016%=      5-min Rain = 0
KBR1 222324Z 09002KT 16/M09 A3008 RMK A01 T01641094  RH  016%=      5-min Rain = 0
KBR1 222325Z 07002KT 16/M09 A3008 RMK A01 T01641094  RH  016%=      5-min Rain = 0
KBR1 222326Z 06003KT 16/M09 A3008 RMK A01 T01641093  RH  016%=      5-min Rain = 0
KBR1 222327Z 07002KT 16/M09 A3008 RMK A01 T01641094  RH  016%=      5-min Rain = 0
KBR1 222328Z 08004KT 16/M09 A3008 RMK A01 T01641090  RH  017%=      5-min Rain = 0
KBR1 222329Z 08006KT 16/M09 A3008 RMK A01 T01641088  RH  017%=      5-min Rain = 0
KBR1 222330Z 08005KT 16/M09 A3008 RMK A01 T01641087  RH  017%=      5-min Rain = 0
KBR1 222331Z 07004KT 16/M09 A3008 RMK A01 T01631091  RH  017%=      5-min Rain = 0
KBR1 222332Z 07005KT 16/M09 A3008 RMK A01 T01621091  RH  017%=      5-min Rain = 0
KBR1 222333Z 07004KT 16/M09 A3008 RMK A01 T01621093  RH  016%=      5-min Rain = 0
KBR1 222334Z 08005KT 16/M09 A3008 RMK A01 T01621089  RH  017%=      5-min Rain = 0
KBR1 222335Z 08005KT 16/M09 A3008 RMK A01 T01611092  RH  017%=      5-min Rain = 0
KBR1 222336Z 07006KT 16/M09 A3008 RMK A01 T01621088  RH  017%=      5-min Rain = 0
KBR1 222337Z 08005KT 16/M09 A3008 RMK A01 T01611089  RH  017%=      5-min Rain = 0
KBR1 222338Z 09005KT 16/M09 A3008 RMK A01 T01611087  RH  017%=      5-min Rain = 0
KBR1 222339Z 08006KT 16/M09 A3008 RMK A01 T01611086  RH  018%=      5-min Rain = 0
KBR1 222340Z 08005KT 16/M09 A3008 RMK A01 T01611089  RH  017%=      5-min Rain = 0
KBR1 222341Z 08005KT 16/M09 A3008 RMK A01 T01601089  RH  017%=      5-min Rain = 0
KBR1 222342Z 08005KT 16/M09 A3008 RMK A01 T01601090  RH  017%=      5-min Rain = 0
KBR1 222343Z 08004KT 16/M09 A3008 RMK A01 T01601090  RH  017%=      5-min Rain = 0
KBR1 222344Z 09005KT 16/M09 A3008 RMK A01 T01601089  RH  017%=      5-min Rain = 0
KBR1 222345Z 09005KT 16/M09 A3008 RMK A01 T01601091  RH  017%=      5-min Rain = 0
KBR1 222346Z 08004KT 16/M09 A3008 RMK A01 T01591090  RH  017%=      5-min Rain = 0
KBR1 222347Z 09005KT 16/M09 A3008 RMK A01 T01591089  RH  017%=      5-min Rain = 0
KBR1 222348Z 10005KT 16/M09 A3008 RMK A01 T01591090  RH  017%=      5-min Rain = 0
KBR1 222349Z 10005KT 16/M09 A3008 RMK A01 T01591087  RH  018%=      5-min Rain = 0
KBR1 222350Z 10004KT 16/M09 A3008 RMK A01 T01591089  RH  017%=      5-min Rain = 0
KBR1 222351Z 10005KT 16/M09 A3008 RMK A01 T01581090  RH  017%=      5-min Rain = 0
KBR1 222352Z 10005KT 16/M09 A3008 RMK A01 T01581089  RH  017%=      5-min Rain = 0
KBR1 222353Z 10004KT 16/M09 A3008 RMK A01 T01581091  RH  017%=      5-min Rain = 0
KBR1 222354Z 10004KT 16/M09 A3008 RMK A01 T01571091  RH  017%=      5-min Rain = 0
KBR1 222355Z 10005KT 16/M09 A3008 RMK A01 T01581092  RH  017%=      5-min Rain = 0
KBR1 222356Z 09004KT 16/M10 A3008 RMK A01 T01571095  RH  017%=      5-min Rain = 0
KBR1 222357Z 09004KT 16/M09 A3008 RMK A01 T01571091  RH  017%=      5-min Rain = 0
KBR1 222358Z 10003KT 16/M09 A3008 RMK A01 T01571089  RH  018%=      5-min Rain = 0
KBR1 222359Z 10003KT 16/M09 A3008 RMK A01 T01561088  RH  018%=      5-min Rain = 0
KBR1 230000Z 10003KT 16/M09 A3008 RMK A01 T01551088  RH  018%=      5-min Rain = 0
KBR1 230001Z 10003KT 16/M09 A3008 RMK A01 T01551086  RH  018%=      5-min Rain = 0
KBR1 230002Z 10003KT 16/M09 A3008 RMK A01 T01551085  RH  018%=      5-min Rain = 0
KBR1 230003Z 10003KT 15/M09 A3008 RMK A01 T01531086  RH  018%=      5-min Rain = 0
KBR1 230004Z 10004KT 15/M09 A3008 RMK A01 T01531086  RH  018%=      5-min Rain = 0
KBR1 230005Z 10003KT 15/M09 A3008 RMK A01 T01521085  RH  019%=      5-min Rain = 0
KBR1 230006Z 11003KT 15/M08 A3008 RMK A01 T01521084  RH  019%=      5-min Rain = 0
KBR1 230007Z 10003KT 15/M08 A3008 RMK A01 T01521084  RH  019%=      5-min Rain = 0
KBR1 230008Z 10004KT 15/M08 A3008 RMK A01 T01511083  RH  019%=      5-min Rain = 0
KBR1 230009Z 11004KT 15/M08 A3008 RMK A01 T01501084  RH  019%=      5-min Rain = 0
KBR1 230010Z 11004KT 15/M08 A3008 RMK A01 T01491083  RH  019%=      5-min Rain = 0
KBR1 230011Z 11004KT 15/M08 A3008 RMK A01 T01481084  RH  019%=      5-min Rain = 0
KBR1 230012Z 11005KT 15/M08 A3008 RMK A01 T01471084  RH  019%=      5-min Rain = 0
KBR1 230013Z 11005KT 15/M08 A3008 RMK A01 T01461084  RH  020%=      5-min Rain = 0
KBR1 230014Z 12005KT 15/M08 A3008 RMK A01 T01451084  RH  020%=      5-min Rain = 0
KBR1 230015Z 12005KT 14/M08 A3008 RMK A01 T01441083  RH  020%=      5-min Rain = 0
KBR1 230016Z 12005KT 14/M08 A3008 RMK A01 T01421082  RH  020%=      5-min Rain = 0
KBR1 230017Z 12006KT 14/M08 A3008 RMK A01 T01401081  RH  021%=      5-min Rain = 0
KBR1 230018Z 12006KT 14/M08 A3008 RMK A01 T01381081  RH  021%=      5-min Rain = 0
KBR1 230019Z 12006KT 14/M08 A3008 RMK A01 T01371081  RH  021%=      5-min Rain = 0
KBR1 230020Z 12006KT 14/M08 A3008 RMK A01 T01351081  RH  021%=      5-min Rain = 0
KBR1 230021Z 12006KT 13/M08 A3008 RMK A01 T01341081  RH  022%=      5-min Rain = 0
KBR1 230022Z 12006KT 13/M08 A3008 RMK A01 T01331081  RH  022%=      5-min Rain = 0
KBR1 230023Z 12006KT 13/M08 A3008 RMK A01 T01321081  RH  022%=      5-min Rain = 0
KBR1 230024Z 12006KT 13/M08 A3008 RMK A01 T01311080  RH  022%=      5-min Rain = 0
KBR1 230025Z 12006KT 13/M08 A3008 RMK A01 T01301080  RH  023%=      5-min Rain = 0
KBR1 230026Z 12008KT 13/M08 A3008 RMK A01 T01281079  RH  023%=      5-min Rain = 0
KBR1 230027Z 12008KT 13/M08 A3008 RMK A01 T01271080  RH  023%=      5-min Rain = 0
KBR1 230028Z 13007KT 13/M08 A3008 RMK A01 T01271080  RH  023%=      5-min Rain = 0
KBR1 230029Z 13008KT 13/M08 A3008 RMK A01 T01261080  RH  023%=      5-min Rain = 0
KBR1 230030Z 13008KT 12/M08 A3008 RMK A01 T01241079  RH  024%=      5-min Rain = 0
KBR1 230031Z 13008KT 12/M08 A3008 RMK A01 T01221079  RH  024%=      5-min Rain = 0
KBR1 230032Z 13008KT 12/M08 A3008 RMK A01 T01201079  RH  024%=      5-min Rain = 0
KBR1 230033Z 12008KT 12/M08 A3008 RMK A01 T01181078  RH  024%=      5-min Rain = 0
KBR1 230034Z 12007KT 12/M08 A3008 RMK A01 T01171079  RH  025%=      5-min Rain = 0
KBR1 230035Z 12008KT 12/M08 A3008 RMK A01 T01161078  RH  025%=      5-min Rain = 0
KBR1 230036Z 12008KT 12/M08 A3008 RMK A01 T01151079  RH  025%=      5-min Rain = 0
KBR1 230037Z 12008KT 11/M08 A3008 RMK A01 T01141078  RH  025%=      5-min Rain = 0
KBR1 230038Z 12008KT 11/M08 A3008 RMK A01 T01131078  RH  026%=      5-min Rain = 0
KBR1 230039Z 12008KT 11/M08 A3008 RMK A01 T01111078  RH  026%=      5-min Rain = 0
KBR1 230040Z 12008KT 11/M08 A3008 RMK A01 T01101077  RH  026%=      5-min Rain = 0
KBR1 230041Z 13008KT 11/M08 A3008 RMK A01 T01091077  RH  026%=      5-min Rain = 0
KBR1 230042Z 13008KT 11/M08 A3008 RMK A01 T01071078  RH  026%=      5-min Rain = 0
KBR1 230043Z 13008KT 11/M08 A3008 RMK A01 T01071078  RH  026%=      5-min Rain = 0
KBR1 230044Z 13008KT 11/M08 A3008 RMK A01 T01061079  RH  027%=      5-min Rain = 0
KBR1 230045Z 13008KT 11/M08 A3008 RMK A01 T01061079  RH  027%=      5-min Rain = 0
KBR1 230046Z 13008KT 11/M08 A3008 RMK A01 T01051079  RH  027%=      5-min Rain = 0
KBR1 230047Z 13008KT 10/M08 A3008 RMK A01 T01041079  RH  027%=      5-min Rain = 0
KBR1 230048Z 13008KT 10/M08 A3008 RMK A01 T01031079  RH  027%=      5-min Rain = 0
KBR1 230049Z 13008KT 10/M08 A3008 RMK A01 T01011079  RH  027%=      5-min Rain = 0
KBR1 230050Z 13007KT 10/M08 A3008 RMK A01 T01001078  RH  028%=      5-min Rain = 0
KBR1 230051Z 13007KT 10/M08 A3008 RMK A01 T00981079  RH  028%=      5-min Rain = 0
KBR1 230052Z 13007KT 10/M08 A3008 RMK A01 T00971079  RH  028%=      5-min Rain = 0
KBR1 230053Z 14007KT 10/M08 A3008 RMK A01 T00971078  RH  028%=      5-min Rain = 0
KBR1 230054Z 14006KT 10/M08 A3008 RMK A01 T00961079  RH  028%=      5-min Rain = 0
KBR1 230055Z 14007KT 09/M08 A3008 RMK A01 T00941078  RH  029%=      5-min Rain = 0
KBR1 230056Z 14007KT 09/M08 A3009 RMK A01 T00941078  RH  029%=      5-min Rain = 0
KBR1 230057Z 14007KT 09/M08 A3009 RMK A01 T00931078  RH  029%=      5-min Rain = 0
KBR1 230058Z 14007KT 09/M08 A3009 RMK A01 T00921078  RH  029%=      5-min Rain = 0
KBR1 230059Z 14007KT 09/M08 A3009 RMK A01 T00921079  RH  029%=      5-min Rain = 0
KBR1 230100Z 14007KT 09/M08 A3008 RMK A01 T00921079  RH  029%=      5-min Rain = 0
KBR1 230101Z 14007KT 09/M08 A3008 RMK A01 T00931079  RH  029%=      5-min Rain = 0
KBR1 230102Z 14007KT 09/M08 A3008 RMK A01 T00941079  RH  029%=      5-min Rain = 0
KBR1 230103Z 14007KT 09/M08 A3008 RMK A01 T00941079  RH  029%=      5-min Rain = 0
KBR1 230104Z 14007KT 10/M08 A3008 RMK A01 T00961078  RH  028%=      5-min Rain = 0
KBR1 230105Z 14007KT 10/M08 A3009 RMK A01 T00991078  RH  028%=      5-min Rain = 0
KBR1 230106Z 14007KT 10/M08 A3009 RMK A01 T01001078  RH  028%=      5-min Rain = 0
KBR1 230107Z 14007KT 10/M08 A3009 RMK A01 T01011080  RH  027%=      5-min Rain = 0
KBR1 230108Z 14007KT 10/M08 A3009 RMK A01 T01021080  RH  027%=      5-min Rain = 0
KBR1 230109Z 14007KT 10/M08 A3009 RMK A01 T01011081  RH  027%=      5-min Rain = 0
KBR1 230110Z 14007KT 10/M08 A3009 RMK A01 T01011081  RH  027%=      5-min Rain = 0
KBR1 230111Z 14007KT 10/M08 A3009 RMK A01 T01001081  RH  027%=      5-min Rain = 0
KBR1 230112Z 14007KT 10/M08 A3009 RMK A01 T01001081  RH  027%=      5-min Rain = 0
KBR1 230113Z 14007KT 10/M08 A3009 RMK A01 T01001081  RH  027%=      5-min Rain = 0
KBR1 230114Z 14007KT 10/M08 A3009 RMK A01 T01001081  RH  027%=      5-min Rain = 0
KBR1 230115Z 14008KT 10/M08 A3009 RMK A01 T01001081  RH  027%=      5-min Rain = 0
KBR1 230116Z 14008KT 10/M08 A3009 RMK A01 T01001082  RH  027%=      5-min Rain = 0
KBR1 230117Z 14008KT 10/M08 A3009 RMK A01 T01001082  RH  027%=      5-min Rain = 0
KBR1 230118Z 14007KT 10/M08 A3009 RMK A01 T00991082  RH  027%=      5-min Rain = 0
KBR1 230119Z 14007KT 10/M08 A3009 RMK A01 T00981082  RH  027%=      5-min Rain = 0
KBR1 230120Z 14007KT 10/M08 A3009 RMK A01 T00961082  RH  028%=      5-min Rain = 0
KBR1 230121Z 14006KT 10/M08 A3009 RMK A01 T00951082  RH  028%=      5-min Rain = 0
KBR1 230122Z 14006KT 09/M08 A3009 RMK A01 T00941083  RH  028%=      5-min Rain = 0
KBR1 230123Z 14006KT 10/M08 A3009 RMK A01 T00961083  RH  027%=      5-min Rain = 0
KBR1 230124Z 14006KT 10/M08 A3009 RMK A01 T00981084  RH  027%=      5-min Rain = 0
KBR1 230125Z 14006KT 10/M09 A301 RMK A01 T01001085  RH  026%=      5-min Rain = 0
KBR1 230126Z 14006KT 10/M09 A301 RMK A01 T01011085  RH  026%=      5-min Rain = 0
KBR1 230127Z 14006KT 10/M09 A301 RMK A01 T01021086  RH  026%=      5-min Rain = 0
KBR1 230128Z 14006KT 10/M09 A301 RMK A01 T01021086  RH  026%=      5-min Rain = 0
KBR1 230129Z 14006KT 10/M09 A301 RMK A01 T01021085  RH  026%=      5-min Rain = 0
KBR1 230130Z 14006KT 10/M09 A301 RMK A01 T01021085  RH  026%=      5-min Rain = 0
KBR1 230131Z 14006KT 10/M09 A301 RMK A01 T01011085  RH  026%=      5-min Rain = 0
KBR1 230132Z 13006KT 10/M09 A301 RMK A01 T01011085  RH  026%=      5-min Rain = 0
KBR1 230133Z 13006KT 10/M09 A301 RMK A01 T01011086  RH  026%=      5-min Rain = 0
KBR1 230134Z 13006KT 10/M09 A301 RMK A01 T01011087  RH  026%=      5-min Rain = 0
KBR1 230135Z 13006KT 10/M09 A301 RMK A01 T01021088  RH  025%=      5-min Rain = 0
KBR1 230136Z 13006KT 10/M09 A301 RMK A01 T01031088  RH  025%=      5-min Rain = 0
KBR1 230137Z 13006KT 10/M09 A301 RMK A01 T01031088  RH  025%=      5-min Rain = 0
KBR1 230138Z 13006KT 10/M09 A301 RMK A01 T01041088  RH  025%=      5-min Rain = 0
KBR1 230139Z 13006KT 11/M09 A301 RMK A01 T01051090  RH  024%=      5-min Rain = 0
KBR1 230140Z 13006KT 11/M09 A301 RMK A01 T01071090  RH  024%=      5-min Rain = 0
KBR1 230141Z 13005KT 11/M09 A301 RMK A01 T01091091  RH  024%=      5-min Rain = 0
KBR1 230142Z 13005KT 11/M09 A301 RMK A01 T01101092  RH  023%=      5-min Rain = 0
KBR1 230143Z 13005KT 11/M09 A301 RMK A01 T01121092  RH  023%=      5-min Rain = 0
KBR1 230144Z 13005KT 11/M09 A301 RMK A01 T01131093  RH  023%=      5-min Rain = 0
KBR1 230145Z 13005KT 11/M09 A301 RMK A01 T01131093  RH  023%=      5-min Rain = 0
KBR1 230146Z 13005KT 11/M09 A301 RMK A01 T01141094  RH  022%=      5-min Rain = 0
KBR1 230147Z 13005KT 12/M09 A301 RMK A01 T01151094  RH  022%=      5-min Rain = 0
KBR1 230148Z 14005KT 12/M09 A301 RMK A01 T01151094  RH  022%=      5-min Rain = 0
KBR1 230149Z 14005KT 11/M10 A301 RMK A01 T01141095  RH  022%=      5-min Rain = 0
KBR1 230150Z 14005KT 11/M10 A301 RMK A01 T01131095  RH  022%=      5-min Rain = 0
KBR1 230151Z 15005KT 11/M10 A301 RMK A01 T01131096  RH  022%=      5-min Rain = 0
KBR1 230152Z 15005KT 11/M10 A301 RMK A01 T01141096  RH  022%=      5-min Rain = 0
KBR1 230153Z 15005KT 12/M10 A301 RMK A01 T01151096  RH  022%=      5-min Rain = 0
KBR1 230154Z 15005KT 12/M10 A301 RMK A01 T01151096  RH  022%=      5-min Rain = 0
KBR1 230155Z 15005KT 12/M10 A301 RMK A01 T01151097  RH  022%=      5-min Rain = 0
KBR1 230156Z 15005KT 12/M10 A301 RMK A01 T01151097  RH  022%=      5-min Rain = 0
KBR1 230157Z 15005KT 12/M10 A301 RMK A01 T01161097  RH  021%=      5-min Rain = 0
KBR1 230158Z 14005KT 12/M10 A301 RMK A01 T01171097  RH  021%=      5-min Rain = 0
KBR1 230159Z 14005KT 12/M10 A301 RMK A01 T01171098  RH  021%=      5-min Rain = 0
KBR1 230200Z 14005KT 12/M10 A301 RMK A01 T01181098  RH  021%=      5-min Rain = 0
KBR1 230201Z 13005KT 12/M10 A301 RMK A01 T01181098  RH  021%=      5-min Rain = 0
KBR1 230202Z 13004KT 12/M10 A301 RMK A01 T01181099  RH  021%=      5-min Rain = 0
KBR1 230203Z 13004KT 12/M10 A301 RMK A01 T01181099  RH  021%=      5-min Rain = 0
KBR1 230204Z 13004KT 12/M10 A301 RMK A01 T01191099  RH  021%=      5-min Rain = 0
KBR1 230205Z 13004KT 12/M10 A301 RMK A01 T01181099  RH  021%=      5-min Rain = 0
KBR1 230206Z 13004KT 12/M10 A3011 RMK A01 T01181099  RH  021%=      5-min Rain = 0
KBR1 230207Z 12003KT 11/M08 A3011 RMK A01 T01121084  RH  025%=      5-min Rain = 0
KBR1 230208Z 12003KT 10/M08 A3011 RMK A01 T00981080  RH  028%=      5-min Rain = 0
KBR1 230209Z 11002KT 08/M08 A3011 RMK A01 T00821079  RH  031%=      5-min Rain = 0
KBR1 230210Z 09001KT 07/M08 A3011 RMK A01 T00711084  RH  032%=      5-min Rain = 0
KBR1 230211Z 06001KT 07/M08 A3011 RMK A01 T00691084  RH  033%=      5-min Rain = 0
KBR1 230212Z 02001KT 07/M08 A3011 RMK A01 T00681084  RH  033%=      5-min Rain = 0
KBR1 230213Z 00001KT 07/M08 A3011 RMK A01 T00691082  RH  033%=      5-min Rain = 0
KBR1 230214Z 01000KT 07/M08 A3011 RMK A01 T00691081  RH  033%=      5-min Rain = 0
KBR1 230215Z 00000KT 07/M08 A3011 RMK A01 T00691082  RH  033%=      5-min Rain = 0
KBR1 230216Z 00000KT 07/M08 A3011 RMK A01 T00711084  RH  032%=      5-min Rain = 0
KBR1 230217Z 00000KT 07/M09 A3011 RMK A01 T00741086  RH  031%=      5-min Rain = 0
KBR1 230218Z 33001KT 08/M08 A3011 RMK A01 T00751083  RH  031%=      5-min Rain = 0
KBR1 230219Z 33001KT 08/M09 A3011 RMK A01 T00761088  RH  030%=      5-min Rain = 0
KBR1 230220Z 33000KT 08/M09 A3011 RMK A01 T00801093  RH  028%=      5-min Rain = 0
KBR1 230221Z 00000KT 08/M09 A3011 RMK A01 T00841092  RH  028%=      5-min Rain = 0
KBR1 230222Z 00000KT 08/M09 A3011 RMK A01 T00841089  RH  028%=      5-min Rain = 0
KBR1 230223Z 00000KT 08/M09 A3011 RMK A01 T00831090  RH  028%=      5-min Rain = 0
KBR1 230224Z 00000KT 08/M10 A3011 RMK A01 T00821095  RH  027%=      5-min Rain = 0
KBR1 230225Z 00000KT 08/M10 A3011 RMK A01 T00841096  RH  027%=      5-min Rain = 0
KBR1 230226Z 00000KT 08/M10 A3011 RMK A01 T00841097  RH  027%=      5-min Rain = 0
KBR1 230227Z 00000KT 09/M10 A3011 RMK A01 T00851098  RH  026%=      5-min Rain = 0
KBR1 230228Z 14000KT 09/M10 A3011 RMK A01 T00851098  RH  026%=      5-min Rain = 0
KBR1 230229Z 14001KT 09/M10 A3011 RMK A01 T00861098  RH  026%=      5-min Rain = 0
KBR1 230230Z 13001KT 09/M10 A3011 RMK A01 T00881098  RH  026%=      5-min Rain = 0
KBR1 230231Z 12002KT 09/M10 A3011 RMK A01 T00901097  RH  026%=      5-min Rain = 0
KBR1 230232Z 13002KT 09/M10 A3011 RMK A01 T00921097  RH  025%=      5-min Rain = 0
KBR1 230233Z 13002KT 09/M10 A3011 RMK A01 T00931097  RH  025%=      5-min Rain = 0
KBR1 230234Z 13002KT 09/M10 A3011 RMK A01 T00941096  RH  025%=      5-min Rain = 0
KBR1 230235Z 13002KT 09/M10 A3011 RMK A01 T00931095  RH  026%=      5-min Rain = 0
KBR1 230236Z 12001KT 09/M10 A3011 RMK A01 T00911095  RH  026%=      5-min Rain = 0
KBR1 230237Z 11001KT 09/M10 A3011 RMK A01 T00891095  RH  026%=      5-min Rain = 0
KBR1 230238Z 08001KT 09/M10 A3011 RMK A01 T00871095  RH  026%=      5-min Rain = 0
KBR1 230239Z 06001KT 08/M09 A3011 RMK A01 T00831093  RH  028%=      5-min Rain = 0
KBR1 230240Z 06001KT 08/M09 A3011 RMK A01 T00761092  RH  029%=      5-min Rain = 0
KBR1 230241Z 07001KT 07/M09 A3011 RMK A01 T00691091  RH  031%=      5-min Rain = 0
KBR1 230242Z 07001KT 07/M09 A3011 RMK A01 T00661090  RH  032%=      5-min Rain = 0
KBR1 230243Z 08000KT 07/M09 A3011 RMK A01 T00651091  RH  032%=      5-min Rain = 0
KBR1 230244Z 00000KT 07/M09 A3011 RMK A01 T00661093  RH  031%=      5-min Rain = 0
KBR1 230245Z 00000KT 07/M09 A3011 RMK A01 T00691094  RH  030%=      5-min Rain = 0
KBR1 230246Z 00000KT 07/M09 A3011 RMK A01 T00731094  RH  029%=      5-min Rain = 0
KBR1 230247Z 00000KT 08/M10 A3011 RMK A01 T00761095  RH  029%=      5-min Rain = 0
KBR1 230248Z 02000KT 08/M10 A3011 RMK A01 T00771095  RH  028%=      5-min Rain = 0
KBR1 230249Z 00001KT 08/M10 A3011 RMK A01 T00781095  RH  028%=      5-min Rain = 0
KBR1 230250Z 00001KT 08/M09 A3011 RMK A01 T00781092  RH  029%=      5-min Rain = 0
KBR1 230251Z 00001KT 08/M09 A3011 RMK A01 T00761093  RH  029%=      5-min Rain = 0
KBR1 230252Z 00001KT 08/M09 A3011 RMK A01 T00751094  RH  029%=      5-min Rain = 0
KBR1 230253Z 00001KT 08/M09 A3011 RMK A01 T00761094  RH  029%=      5-min Rain = 0
KBR1 230254Z 00001KT 08/M10 A3011 RMK A01 T00771095  RH  029%=      5-min Rain = 0
KBR1 230255Z 36002KT 08/M09 A3011 RMK A01 T00751092  RH  029%=      5-min Rain = 0
KBR1 230256Z 35002KT 07/M09 A3011 RMK A01 T00721090  RH  031%=      5-min Rain = 0
KBR1 230257Z 36001KT 07/M09 A3011 RMK A01 T00691090  RH  031%=      5-min Rain = 0
KBR1 230258Z 00002KT 07/M09 A3011 RMK A01 T00681089  RH  032%=      5-min Rain = 0
KBR1 230259Z 00002KT 07/M09 A3011 RMK A01 T00651087  RH  033%=      5-min Rain = 0
KBR1 230300Z 01002KT 06/M09 A3012 RMK A01 T00621086  RH  034%=      5-min Rain = 0
KBR1 230301Z 01002KT 06/M09 A3012 RMK A01 T00611086  RH  034%=      5-min Rain = 0
KBR1 230302Z 01002KT 06/M09 A3012 RMK A01 T00601086  RH  034%=      5-min Rain = 0
KBR1 230303Z 01002KT 06/M09 A3012 RMK A01 T00601088  RH  034%=      5-min Rain = 0
KBR1 230304Z 02001KT 06/M09 A3012 RMK A01 T00611090  RH  033%=      5-min Rain = 0
KBR1 230305Z 02001KT 06/M09 A3012 RMK A01 T00631093  RH  032%=      5-min Rain = 0
KBR1 230306Z 00000KT 07/M10 A3012 RMK A01 T00671096  RH  030%=      5-min Rain = 0
KBR1 230307Z 00000KT 07/M10 A3012 RMK A01 T00731098  RH  029%=      5-min Rain = 0
KBR1 230308Z 00000KT 08/M10 A3012 RMK A01 T00761098  RH  028%=      5-min Rain = 0
KBR1 230309Z 00000KT 08/M10 A3012 RMK A01 T00801099  RH  027%=      5-min Rain = 0
KBR1 230310Z 00000KT 08/M10 A3012 RMK A01 T00821101  RH  026%=      5-min Rain = 0
KBR1 230311Z 00000KT 08/M10 A3012 RMK A01 T00841101  RH  026%=      5-min Rain = 0
KBR1 230312Z 00000KT 09/M10 A3012 RMK A01 T00851098  RH  026%=      5-min Rain = 0
KBR1 230313Z 00000KT 08/M10 A3012 RMK A01 T00821097  RH  027%=      5-min Rain = 0
KBR1 230314Z 00000KT 08/M09 A3012 RMK A01 T00781092  RH  029%=      5-min Rain = 0
KBR1 230315Z 00000KT 07/M10 A3012 RMK A01 T00741097  RH  029%=      5-min Rain = 0
KBR1 230316Z 00000KT 08/M10 A3012 RMK A01 T00751100  RH  028%=      5-min Rain = 0
KBR1 230317Z 00000KT 08/M10 A3012 RMK A01 T00781101  RH  027%=      5-min Rain = 0
KBR1 230318Z 00000KT 08/M10 A3012 RMK A01 T00801101  RH  027%=      5-min Rain = 0
KBR1 230319Z 00000KT 08/M10 A3012 RMK A01 T00821102  RH  026%=      5-min Rain = 0
KBR1 230320Z 00000KT 09/M10 A3012 RMK A01 T00851102  RH  025%=      5-min Rain = 0
KBR1 230321Z 00000KT 09/M10 A3012 RMK A01 T00871102  RH  025%=      5-min Rain = 0
KBR1 230322Z 00000KT 09/M10 A3012 RMK A01 T00871102  RH  025%=      5-min Rain = 0
KBR1 230323Z 31000KT 09/M10 A3012 RMK A01 T00871101  RH  025%=      5-min Rain = 0
KBR1 230324Z 32002KT 09/M10 A3012 RMK A01 T00861100  RH  026%=      5-min Rain = 0
KBR1 230325Z 33002KT 08/M10 A3012 RMK A01 T00831098  RH  027%=      5-min Rain = 0
KBR1 230326Z 34002KT 08/M10 A3012 RMK A01 T00801098  RH  027%=      5-min Rain = 0
KBR1 230327Z 34002KT 08/M10 A3012 RMK A01 T00781098  RH  028%=      5-min Rain = 0
KBR1 230328Z 35002KT 08/M10 A3012 RMK A01 T00761098  RH  028%=      5-min Rain = 0
KBR1 230329Z 34002KT 07/M10 A3012 RMK A01 T00741097  RH  028%=      5-min Rain = 0
KBR1 230330Z 34003KT 07/M10 A3012 RMK A01 T00721096  RH  029%=      5-min Rain = 0
KBR1 230331Z 34003KT 07/M09 A3012 RMK A01 T00691093  RH  030%=      5-min Rain = 0
KBR1 230332Z 34003KT 07/M09 A3012 RMK A01 T00661091  RH  031%=      5-min Rain = 0
KBR1 230333Z 33003KT 06/M09 A3012 RMK A01 T00641092  RH  032%=      5-min Rain = 0
KBR1 230334Z 33003KT 06/M09 A3012 RMK A01 T00631092  RH  032%=      5-min Rain = 0
KBR1 230335Z 32003KT 06/M09 A3012 RMK A01 T00631093  RH  032%=      5-min Rain = 0
KBR1 230336Z 32003KT 06/M09 A3012 RMK A01 T00631094  RH  032%=      5-min Rain = 0
KBR1 230337Z 32004KT 06/M09 A3012 RMK A01 T00631093  RH  032%=      5-min Rain = 0
KBR1 230338Z 32004KT 06/M09 A3012 RMK A01 T00641093  RH  032%=      5-min Rain = 0
KBR1 230339Z 32004KT 07/M09 A3012 RMK A01 T00651093  RH  031%=      5-min Rain = 0
KBR1 230340Z 33004KT 07/M09 A3012 RMK A01 T00651092  RH  031%=      5-min Rain = 0
KBR1 230341Z 33004KT 07/M09 A3012 RMK A01 T00651091  RH  032%=      5-min Rain = 0
KBR1 230342Z 33004KT 06/M09 A3012 RMK A01 T00641091  RH  032%=      5-min Rain = 0
KBR1 230343Z 33004KT 06/M09 A3012 RMK A01 T00641091  RH  032%=      5-min Rain = 0
KBR1 230344Z 33004KT 06/M09 A3012 RMK A01 T00641092  RH  032%=      5-min Rain = 0
KBR1 230345Z 34003KT 06/M09 A3012 RMK A01 T00641092  RH  032%=      5-min Rain = 0
KBR1 230346Z 33004KT 07/M09 A3013 RMK A01 T00651092  RH  032%=      5-min Rain = 0
KBR1 230347Z 34003KT 07/M09 A3013 RMK A01 T00651092  RH  032%=      5-min Rain = 0
KBR1 230348Z 34003KT 06/M09 A3013 RMK A01 T00641092  RH  032%=      5-min Rain = 0
KBR1 230349Z 34004KT 06/M09 A3013 RMK A01 T00641092  RH  032%=      5-min Rain = 0
KBR1 230350Z 34004KT 06/M09 A3013 RMK A01 T00641092  RH  032%=      5-min Rain = 0
KBR1 230351Z 34003KT 07/M09 A3013 RMK A01 T00651093  RH  031%=      5-min Rain = 0
KBR1 230352Z 35003KT 07/M09 A3013 RMK A01 T00651092  RH  031%=      5-min Rain = 0
KBR1 230353Z 35003KT 07/M09 A3013 RMK A01 T00661092  RH  031%=      5-min Rain = 0
KBR1 230354Z 34003KT 07/M09 A3013 RMK A01 T00671093  RH  031%=      5-min Rain = 0
KBR1 230355Z 34003KT 07/M09 A3013 RMK A01 T00681093  RH  031%=      5-min Rain = 0
KBR1 230356Z 34003KT 07/M09 A3013 RMK A01 T00681092  RH  031%=      5-min Rain = 0
KBR1 230357Z 33004KT 07/M09 A3013 RMK A01 T00681092  RH  031%=      5-min Rain = 0
KBR1 230358Z 33004KT 07/M09 A3013 RMK A01 T00681092  RH  031%=      5-min Rain = 0
KBR1 230359Z 32004KT 07/M09 A3013 RMK A01 T00681093  RH  031%=      5-min Rain = 0
KBR1 230400Z 33004KT 07/M09 A3013 RMK A01 T00681093  RH  031%=      5-min Rain = 0
KBR1 230401Z 33004KT 07/M09 A3013 RMK A01 T00681093  RH  031%=      5-min Rain = 0
KBR1 230402Z 33004KT 07/M09 A3013 RMK A01 T00691093  RH  030%=      5-min Rain = 0
KBR1 230403Z 33004KT 07/M09 A3013 RMK A01 T00701093  RH  030%=      5-min Rain = 0
KBR1 230404Z 33004KT 07/M09 A3013 RMK A01 T00711093  RH  030%=      5-min Rain = 0
KBR1 230405Z 34004KT 07/M09 A3013 RMK A01 T00701092  RH  030%=      5-min Rain = 0
KBR1 230406Z 34004KT 07/M09 A3013 RMK A01 T00691092  RH  031%=      5-min Rain = 0
KBR1 230407Z 34004KT 07/M09 A3013 RMK A01 T00681092  RH  031%=      5-min Rain = 0
KBR1 230408Z 33004KT 07/M09 A3013 RMK A01 T00681092  RH  031%=      5-min Rain = 0
KBR1 230409Z 33004KT 07/M09 A3013 RMK A01 T00681093  RH  031%=      5-min Rain = 0
KBR1 230410Z 32003KT 07/M09 A3013 RMK A01 T00681093  RH  031%=      5-min Rain = 0
KBR1 230411Z 32003KT 07/M09 A3013 RMK A01 T00691093  RH  031%=      5-min Rain = 0
KBR1 230412Z 31004KT 07/M09 A3013 RMK A01 T00691093  RH  030%=      5-min Rain = 0
KBR1 230413Z 31004KT 07/M09 A3013 RMK A01 T00711093  RH  030%=      5-min Rain = 0
KBR1 230414Z 31004KT 07/M09 A3013 RMK A01 T00711093  RH  030%=      5-min Rain = 0
KBR1 230415Z 32004KT 07/M09 A3013 RMK A01 T00711093  RH  030%=      5-min Rain = 0
KBR1 230416Z 32004KT 07/M09 A3013 RMK A01 T00711092  RH  030%=      5-min Rain = 0
KBR1 230417Z 32004KT 07/M09 A3013 RMK A01 T00701092  RH  030%=      5-min Rain = 0
KBR1 230418Z 33004KT 07/M09 A3013 RMK A01 T00691093  RH  030%=      5-min Rain = 0
KBR1 230419Z 33004KT 07/M09 A3013 RMK A01 T00691093  RH  031%=      5-min Rain = 0
KBR1 230420Z 32005KT 07/M09 A3013 RMK A01 T00691093  RH  031%=      5-min Rain = 0
KBR1 230421Z 32005KT 07/M09 A3013 RMK A01 T00691092  RH  031%=      5-min Rain = 0
KBR1 230422Z 32005KT 07/M09 A3013 RMK A01 T00681093  RH  031%=      5-min Rain = 0
KBR1 230423Z 32005KT 07/M09 A3013 RMK A01 T00681093  RH  031%=      5-min Rain = 0
KBR1 230424Z 31005KT 07/M09 A3013 RMK A01 T00681092  RH  031%=      5-min Rain = 0
KBR1 230425Z 31004KT 07/M09 A3013 RMK A01 T00681093  RH  031%=      5-min Rain = 0
KBR1 230426Z 31004KT 07/M09 A3013 RMK A01 T00701093  RH  030%=      5-min Rain = 0
KBR1 230427Z 31004KT 07/M09 A3013 RMK A01 T00711093  RH  030%=      5-min Rain = 0
KBR1 230428Z 31004KT 07/M09 A3013 RMK A01 T00711093  RH  030%=      5-min Rain = 0
KBR1 230429Z 32004KT 07/M09 A3013 RMK A01 T00711093  RH  030%=      5-min Rain = 0
KBR1 230430Z 32004KT 07/M09 A3013 RMK A01 T00711093  RH  030%=      5-min Rain = 0
KBR1 230431Z 33005KT 07/M09 A3013 RMK A01 T00711093  RH  030%=      5-min Rain = 0
KBR1 230432Z 33005KT 07/M09 A3013 RMK A01 T00721092  RH  030%=      5-min Rain = 0
KBR1 230433Z 33005KT 07/M09 A3013 RMK A01 T00711091  RH  031%=      5-min Rain = 0
KBR1 230434Z 32005KT 07/M09 A3013 RMK A01 T00711092  RH  030%=      5-min Rain = 0
KBR1 230435Z 32005KT 07/M09 A3013 RMK A01 T00711093  RH  030%=      5-min Rain = 0
KBR1 230436Z 32005KT 07/M09 A3013 RMK A01 T00721092  RH  030%=      5-min Rain = 0
KBR1 230437Z 32005KT 07/M09 A3013 RMK A01 T00721093  RH  030%=      5-min Rain = 0
KBR1 230438Z 32005KT 07/M09 A3013 RMK A01 T00721093  RH  030%=      5-min Rain = 0
KBR1 230439Z 32005KT 07/M09 A3013 RMK A01 T00721092  RH  030%=      5-min Rain = 0
KBR1 230440Z 32005KT 07/M09 A3013 RMK A01 T00711093  RH  030%=      5-min Rain = 0
KBR1 230441Z 32005KT 07/M09 A3013 RMK A01 T00721092  RH  030%=      5-min Rain = 0
KBR1 230442Z 32005KT 07/M09 A3013 RMK A01 T00711091  RH  030%=      5-min Rain = 0
KBR1 230443Z 32004KT 07/M09 A3013 RMK A01 T00701091  RH  031%=      5-min Rain = 0
KBR1 230444Z 33005KT 07/M09 A3013 RMK A01 T00701091  RH  031%=      5-min Rain = 0
KBR1 230445Z 33004KT 07/M09 A3013 RMK A01 T00701091  RH  031%=      5-min Rain = 0
KBR1 230446Z 33004KT 07/M09 A3013 RMK A01 T00701092  RH  031%=      5-min Rain = 0
KBR1 230447Z 33004KT 07/M09 A3013 RMK A01 T00701092  RH  031%=      5-min Rain = 0
KBR1 230448Z 34004KT 07/M09 A3013 RMK A01 T00701092  RH  031%=      5-min Rain = 0
KBR1 230449Z 34004KT 07/M09 A3013 RMK A01 T00701092  RH  031%=      5-min Rain = 0
KBR1 230450Z 33004KT 07/M09 A3013 RMK A01 T00701092  RH  031%=      5-min Rain = 0
KBR1 230451Z 33004KT 07/M09 A3013 RMK A01 T00701092  RH  030%=      5-min Rain = 0
KBR1 230452Z 33004KT 07/M09 A3013 RMK A01 T00701092  RH  030%=      5-min Rain = 0
KBR1 230453Z 33004KT 07/M09 A3013 RMK A01 T00701093  RH  030%=      5-min Rain = 0
KBR1 230454Z 32005KT 07/M09 A3013 RMK A01 T00701093  RH  030%=      5-min Rain = 0
KBR1 230455Z 32005KT 07/M09 A3013 RMK A01 T00711093  RH  030%=      5-min Rain = 0
KBR1 230456Z 32004KT 07/M09 A3013 RMK A01 T00701093  RH  030%=      5-min Rain = 0
KBR1 230457Z 33004KT 07/M09 A3013 RMK A01 T00701093  RH  030%=      5-min Rain = 0
KBR1 230458Z 32004KT 07/M09 A3013 RMK A01 T00691093  RH  031%=      5-min Rain = 0
KBR1 230459Z 32005KT 07/M09 A3013 RMK A01 T00691092  RH  031%=      5-min Rain = 0
KBR1 230500Z 32005KT 07/M09 A3013 RMK A01 T00681091  RH  031%=      5-min Rain = 0
KBR1 230501Z 32004KT 07/M09 A3013 RMK A01 T00681091  RH  031%=      5-min Rain = 0
KBR1 230502Z 32004KT 07/M09 A3013 RMK A01 T00691091  RH  031%=      5-min Rain = 0
KBR1 230503Z 32003KT 07/M09 A3013 RMK A01 T00681090  RH  031%=      5-min Rain = 0
KBR1 230504Z 32003KT 07/M09 A3013 RMK A01 T00671090  RH  032%=      5-min Rain = 0
KBR1 230505Z 32003KT 07/M09 A3013 RMK A01 T00661090  RH  032%=      5-min Rain = 0
KBR1 230506Z 32004KT 07/M09 A3013 RMK A01 T00651090  RH  032%=      5-min Rain = 0
KBR1 230507Z 32004KT 06/M09 A3013 RMK A01 T00641090  RH  032%=      5-min Rain = 0
KBR1 230508Z 32004KT 06/M09 A3013 RMK A01 T00631090  RH  032%=      5-min Rain = 0
KBR1 230509Z 32004KT 06/M09 A3013 RMK A01 T00621090  RH  033%=      5-min Rain = 0
KBR1 230510Z 32004KT 06/M09 A3013 RMK A01 T00611089  RH  033%=      5-min Rain = 0
KBR1 230511Z 32004KT 06/M09 A3013 RMK A01 T00611089  RH  033%=      5-min Rain = 0
KBR1 230512Z 32004KT 06/M09 A3013 RMK A01 T00601089  RH  033%=      5-min Rain = 0
KBR1 230513Z 32004KT 06/M09 A3013 RMK A01 T00591089  RH  034%=      5-min Rain = 0
KBR1 230514Z 32004KT 06/M09 A3013 RMK A01 T00591089  RH  034%=      5-min Rain = 0
KBR1 230515Z 32004KT 06/M09 A3013 RMK A01 T00591089  RH  034%=      5-min Rain = 0
KBR1 230516Z 32004KT 06/M09 A3013 RMK A01 T00591089  RH  034%=      5-min Rain = 0
KBR1 230517Z 32003KT 06/M09 A3012 RMK A01 T00591089  RH  034%=      5-min Rain = 0
KBR1 230518Z 32003KT 06/M09 A3012 RMK A01 T00591090  RH  033%=      5-min Rain = 0
KBR1 230519Z 32004KT 06/M09 A3012 RMK A01 T00601089  RH  033%=      5-min Rain = 0
KBR1 230520Z 32004KT 06/M09 A3012 RMK A01 T00621088  RH  033%=      5-min Rain = 0
KBR1 230521Z 32004KT 06/M09 A3012 RMK A01 T00631089  RH  033%=      5-min Rain = 0
KBR1 230522Z 32004KT 06/M09 A3012 RMK A01 T00641089  RH  033%=      5-min Rain = 0
KBR1 230523Z 32003KT 07/M09 A3012 RMK A01 T00651088  RH  032%=      5-min Rain = 0
KBR1 230524Z 31003KT 07/M09 A3012 RMK A01 T00651089  RH  032%=      5-min Rain = 0
KBR1 230525Z 31003KT 06/M09 A3012 RMK A01 T00641088  RH  033%=      5-min Rain = 0
KBR1 230526Z 31003KT 06/M09 A3012 RMK A01 T00641087  RH  033%=      5-min Rain = 0
KBR1 230527Z 32003KT 06/M09 A3012 RMK A01 T00641087  RH  033%=      5-min Rain = 0
KBR1 230528Z 32003KT 06/M09 A3012 RMK A01 T00631086  RH  034%=      5-min Rain = 0
KBR1 230529Z 33002KT 06/M09 A3012 RMK A01 T00631086  RH  034%=      5-min Rain = 0
KBR1 230530Z 33003KT 06/M09 A3012 RMK A01 T00631085  RH  034%=      5-min Rain = 0
KBR1 230531Z 33003KT 06/M09 A3012 RMK A01 T00621085  RH  034%=      5-min Rain = 0
KBR1 230532Z 34004KT 06/M09 A3012 RMK A01 T00621085  RH  034%=      5-min Rain = 0
KBR1 230533Z 34003KT 06/M08 A3012 RMK A01 T00621084  RH  034%=      5-min Rain = 0
KBR1 230534Z 34004KT 06/M09 A3012 RMK A01 T00601085  RH  034%=      5-min Rain = 0
KBR1 230535Z 33004KT 06/M09 A3012 RMK A01 T00601085  RH  034%=      5-min Rain = 0
KBR1 230536Z 33004KT 06/M09 A3012 RMK A01 T00591086  RH  034%=      5-min Rain = 0
KBR1 230537Z 33004KT 06/M09 A3012 RMK A01 T00591085  RH  035%=      5-min Rain = 0
KBR1 230538Z 32004KT 06/M09 A3012 RMK A01 T00581085  RH  035%=      5-min Rain = 0
KBR1 230539Z 32004KT 06/M08 A3012 RMK A01 T00571084  RH  036%=      5-min Rain = 0
KBR1 230540Z 32004KT 06/M08 A3012 RMK A01 T00561083  RH  036%=      5-min Rain = 0
KBR1 230541Z 32004KT 06/M08 A3012 RMK A01 T00561084  RH  036%=      5-min Rain = 0
KBR1 230542Z 32004KT 06/M08 A3012 RMK A01 T00561084  RH  036%=      5-min Rain = 0
KBR1 230543Z 33004KT 06/M08 A3012 RMK A01 T00561084  RH  036%=      5-min Rain = 0
KBR1 230544Z 34004KT 06/M08 A3012 RMK A01 T00551084  RH  036%=      5-min Rain = 0
KBR1 230545Z 34004KT 06/M09 A3012 RMK A01 T00551085  RH  036%=      5-min Rain = 0
KBR1 230546Z 34004KT 06/M09 A3012 RMK A01 T00551085  RH  036%=      5-min Rain = 0
KBR1 230547Z 33005KT 06/M09 A3012 RMK A01 T00551086  RH  036%=      5-min Rain = 0
KBR1 230548Z 33005KT 06/M09 A3012 RMK A01 T00551086  RH  035%=      5-min Rain = 0
KBR1 230549Z 34004KT 06/M09 A3011 RMK A01 T00571086  RH  035%=      5-min Rain = 0
KBR1 230550Z 34004KT 06/M09 A3011 RMK A01 T00591085  RH  035%=      5-min Rain = 0
KBR1 230551Z 33005KT 06/M09 A3011 RMK A01 T00601085  RH  034%=      5-min Rain = 0
KBR1 230552Z 33004KT 06/M09 A3011 RMK A01 T00631085  RH  034%=      5-min Rain = 0
KBR1 230553Z 33004KT 06/M09 A3011 RMK A01 T00631085  RH  034%=      5-min Rain = 0
KBR1 230554Z 33005KT 06/M09 A3011 RMK A01 T00631085  RH  034%=      5-min Rain = 0
KBR1 230555Z 33005KT 06/M08 A3011 RMK A01 T00631084  RH  034%=      5-min Rain = 0
KBR1 230556Z 33005KT 06/M08 A3011 RMK A01 T00631084  RH  034%=      5-min Rain = 0
KBR1 230557Z 33005KT 06/M08 A3011 RMK A01 T00631084  RH  034%=      5-min Rain = 0
KBR1 230558Z 33005KT 06/M08 A3011 RMK A01 T00621084  RH  034%=      5-min Rain = 0
KBR1 230559Z 33005KT 06/M08 A3011 RMK A01 T00621084  RH  034%=      5-min Rain = 0

Page generated in 0.0663 seconds.